<?xml version="1.0" encoding="UTF-8" standalone="no" ?>
<gpx xmlns="http://www.topografix.com/GPX/1/1" xmlns:xsi="http://www.w3.org/2001/XMLSchema-instance" xsi:schemaLocation="http://www.topografix.com/GPX/1/1 http://www.topografix.com/GPX/1/1/gpx.xsd" version="1.1" creator="VisuGPX - https://www.visugpx.com">
  <metadata>
    <name>12198910-2 99 569</name>
  </metadata>
  <trk>
    <name><![CDATA[12198910-2 99 569]]></name>
    <trkseg>
      <trkpt lat="45.66512" lon="4.95766">
        <ele>222</ele>
        <time>2021-03-14T14:58:30Z</time>
      </trkpt>
      <trkpt lat="45.66473" lon="4.95783">
        <ele>224</ele>
        <time>2021-03-14T14:58:37Z</time>
      </trkpt>
      <trkpt lat="45.6647" lon="4.95796">
        <ele>224</ele>
        <time>2021-03-14T14:58:39Z</time>
      </trkpt>
      <trkpt lat="45.66473" lon="4.95811">
        <ele>224</ele>
        <time>2021-03-14T14:58:41Z</time>
      </trkpt>
      <trkpt lat="45.66487" lon="4.95849">
        <ele>224</ele>
        <time>2021-03-14T14:58:46Z</time>
      </trkpt>
      <trkpt lat="45.66491" lon="4.95893">
        <ele>224</ele>
        <time>2021-03-14T14:58:52Z</time>
      </trkpt>
      <trkpt lat="45.66502" lon="4.95939">
        <ele>224</ele>
        <time>2021-03-14T14:58:58Z</time>
      </trkpt>
      <trkpt lat="45.66522" lon="4.96007">
        <ele>224</ele>
        <time>2021-03-14T14:59:07Z</time>
      </trkpt>
      <trkpt lat="45.66582" lon="4.96164">
        <ele>224</ele>
        <time>2021-03-14T14:59:29Z</time>
      </trkpt>
      <trkpt lat="45.66599" lon="4.96198">
        <ele>225</ele>
        <time>2021-03-14T14:59:34Z</time>
      </trkpt>
      <trkpt lat="45.66621" lon="4.96225">
        <ele>224</ele>
        <time>2021-03-14T14:59:40Z</time>
      </trkpt>
      <trkpt lat="45.66644" lon="4.96269">
        <ele>224</ele>
        <time>2021-03-14T14:59:46Z</time>
      </trkpt>
      <trkpt lat="45.66662" lon="4.96335">
        <ele>225</ele>
        <time>2021-03-14T14:59:55Z</time>
      </trkpt>
      <trkpt lat="45.667" lon="4.96531">
        <ele>225</ele>
        <time>2021-03-14T15:00:21Z</time>
      </trkpt>
      <trkpt lat="45.66715" lon="4.96589">
        <ele>225</ele>
        <time>2021-03-14T15:00:28Z</time>
      </trkpt>
      <trkpt lat="45.66791" lon="4.96763">
        <ele>225</ele>
        <time>2021-03-14T15:00:54Z</time>
      </trkpt>
      <trkpt lat="45.66808" lon="4.96835">
        <ele>224</ele>
        <time>2021-03-14T15:01:03Z</time>
      </trkpt>
      <trkpt lat="45.66831" lon="4.97009">
        <ele>225</ele>
        <time>2021-03-14T15:01:25Z</time>
      </trkpt>
      <trkpt lat="45.66829" lon="4.97023">
        <ele>225</ele>
        <time>2021-03-14T15:01:27Z</time>
      </trkpt>
      <trkpt lat="45.66817" lon="4.97046">
        <ele>225</ele>
        <time>2021-03-14T15:01:31Z</time>
      </trkpt>
      <trkpt lat="45.66818" lon="4.9706">
        <ele>225</ele>
        <time>2021-03-14T15:01:32Z</time>
      </trkpt>
      <trkpt lat="45.66824" lon="4.97071">
        <ele>224</ele>
        <time>2021-03-14T15:01:34Z</time>
      </trkpt>
      <trkpt lat="45.66833" lon="4.97079">
        <ele>224</ele>
        <time>2021-03-14T15:01:36Z</time>
      </trkpt>
      <trkpt lat="45.66838" lon="4.97093">
        <ele>224</ele>
        <time>2021-03-14T15:01:38Z</time>
      </trkpt>
      <trkpt lat="45.66847" lon="4.97313">
        <ele>224</ele>
        <time>2021-03-14T15:02:05Z</time>
      </trkpt>
      <trkpt lat="45.66861" lon="4.97436">
        <ele>224</ele>
        <time>2021-03-14T15:02:21Z</time>
      </trkpt>
      <trkpt lat="45.669" lon="4.97712">
        <ele>228</ele>
        <time>2021-03-14T15:02:56Z</time>
      </trkpt>
      <trkpt lat="45.66914" lon="4.97835">
        <ele>228</ele>
        <time>2021-03-14T15:03:11Z</time>
      </trkpt>
      <trkpt lat="45.66922" lon="4.9788">
        <ele>229</ele>
        <time>2021-03-14T15:03:17Z</time>
      </trkpt>
      <trkpt lat="45.66954" lon="4.98008">
        <ele>228</ele>
        <time>2021-03-14T15:03:34Z</time>
      </trkpt>
      <trkpt lat="45.66956" lon="4.98039">
        <ele>228</ele>
        <time>2021-03-14T15:03:38Z</time>
      </trkpt>
      <trkpt lat="45.66971" lon="4.98079">
        <ele>229</ele>
        <time>2021-03-14T15:03:43Z</time>
      </trkpt>
      <trkpt lat="45.6698" lon="4.98124">
        <ele>229</ele>
        <time>2021-03-14T15:03:49Z</time>
      </trkpt>
      <trkpt lat="45.66992" lon="4.98166">
        <ele>230</ele>
        <time>2021-03-14T15:03:55Z</time>
      </trkpt>
      <trkpt lat="45.66997" lon="4.98196">
        <ele>230</ele>
        <time>2021-03-14T15:03:59Z</time>
      </trkpt>
      <trkpt lat="45.67004" lon="4.98207">
        <ele>230</ele>
        <time>2021-03-14T15:04:01Z</time>
      </trkpt>
      <trkpt lat="45.67023" lon="4.98222">
        <ele>230</ele>
        <time>2021-03-14T15:04:04Z</time>
      </trkpt>
      <trkpt lat="45.67032" lon="4.98234">
        <ele>230</ele>
        <time>2021-03-14T15:04:07Z</time>
      </trkpt>
      <trkpt lat="45.67036" lon="4.98249">
        <ele>230</ele>
        <time>2021-03-14T15:04:09Z</time>
      </trkpt>
      <trkpt lat="45.67029" lon="4.98295">
        <ele>230</ele>
        <time>2021-03-14T15:04:14Z</time>
      </trkpt>
      <trkpt lat="45.67031" lon="4.98326">
        <ele>230</ele>
        <time>2021-03-14T15:04:18Z</time>
      </trkpt>
      <trkpt lat="45.67043" lon="4.98386">
        <ele>230</ele>
        <time>2021-03-14T15:04:26Z</time>
      </trkpt>
      <trkpt lat="45.67053" lon="4.98384">
        <ele>230</ele>
        <time>2021-03-14T15:04:28Z</time>
      </trkpt>
      <trkpt lat="45.67062" lon="4.98463">
        <ele>230</ele>
        <time>2021-03-14T15:04:38Z</time>
      </trkpt>
      <trkpt lat="45.67076" lon="4.98536">
        <ele>230</ele>
        <time>2021-03-14T15:04:47Z</time>
      </trkpt>
      <trkpt lat="45.67088" lon="4.98623">
        <ele>230</ele>
        <time>2021-03-14T15:04:58Z</time>
      </trkpt>
      <trkpt lat="45.67126" lon="4.98809">
        <ele>229</ele>
        <time>2021-03-14T15:05:22Z</time>
      </trkpt>
      <trkpt lat="45.67139" lon="4.98899">
        <ele>226</ele>
        <time>2021-03-14T15:05:34Z</time>
      </trkpt>
      <trkpt lat="45.67164" lon="4.98994">
        <ele>228</ele>
        <time>2021-03-14T15:05:46Z</time>
      </trkpt>
      <trkpt lat="45.67189" lon="4.99063">
        <ele>227</ele>
        <time>2021-03-14T15:05:56Z</time>
      </trkpt>
      <trkpt lat="45.67226" lon="4.99122">
        <ele>229</ele>
        <time>2021-03-14T15:06:06Z</time>
      </trkpt>
      <trkpt lat="45.67251" lon="4.9919">
        <ele>232</ele>
        <time>2021-03-14T15:06:16Z</time>
      </trkpt>
      <trkpt lat="45.67278" lon="4.99251">
        <ele>231</ele>
        <time>2021-03-14T15:06:25Z</time>
      </trkpt>
      <trkpt lat="45.6729" lon="4.99301">
        <ele>231</ele>
        <time>2021-03-14T15:06:31Z</time>
      </trkpt>
      <trkpt lat="45.67296" lon="4.99353">
        <ele>231</ele>
        <time>2021-03-14T15:06:38Z</time>
      </trkpt>
      <trkpt lat="45.67351" lon="4.99466">
        <ele>233</ele>
        <time>2021-03-14T15:06:55Z</time>
      </trkpt>
      <trkpt lat="45.67382" lon="4.99536">
        <ele>233</ele>
        <time>2021-03-14T15:07:05Z</time>
      </trkpt>
      <trkpt lat="45.67445" lon="4.99713">
        <ele>233</ele>
        <time>2021-03-14T15:07:30Z</time>
      </trkpt>
      <trkpt lat="45.67484" lon="4.99809">
        <ele>232</ele>
        <time>2021-03-14T15:07:44Z</time>
      </trkpt>
      <trkpt lat="45.6752" lon="4.99869">
        <ele>233</ele>
        <time>2021-03-14T15:07:53Z</time>
      </trkpt>
      <trkpt lat="45.67566" lon="4.99918">
        <ele>233</ele>
        <time>2021-03-14T15:08:04Z</time>
      </trkpt>
      <trkpt lat="45.6761" lon="4.99984">
        <ele>234</ele>
        <time>2021-03-14T15:08:15Z</time>
      </trkpt>
      <trkpt lat="45.67645" lon="5.00054">
        <ele>235</ele>
        <time>2021-03-14T15:08:26Z</time>
      </trkpt>
      <trkpt lat="45.67669" lon="5.00123">
        <ele>236</ele>
        <time>2021-03-14T15:08:35Z</time>
      </trkpt>
      <trkpt lat="45.67707" lon="5.00285">
        <ele>236</ele>
        <time>2021-03-14T15:08:56Z</time>
      </trkpt>
      <trkpt lat="45.67733" lon="5.00433">
        <ele>237</ele>
        <time>2021-03-14T15:09:15Z</time>
      </trkpt>
      <trkpt lat="45.67786" lon="5.00665">
        <ele>237</ele>
        <time>2021-03-14T15:09:46Z</time>
      </trkpt>
      <trkpt lat="45.67831" lon="5.01052">
        <ele>236</ele>
        <time>2021-03-14T15:10:35Z</time>
      </trkpt>
      <trkpt lat="45.67853" lon="5.01116">
        <ele>237</ele>
        <time>2021-03-14T15:10:43Z</time>
      </trkpt>
      <trkpt lat="45.67868" lon="5.01232">
        <ele>238</ele>
        <time>2021-03-14T15:10:58Z</time>
      </trkpt>
      <trkpt lat="45.67884" lon="5.01307">
        <ele>237</ele>
        <time>2021-03-14T15:11:08Z</time>
      </trkpt>
      <trkpt lat="45.67919" lon="5.01387">
        <ele>238</ele>
        <time>2021-03-14T15:11:20Z</time>
      </trkpt>
      <trkpt lat="45.67943" lon="5.01456">
        <ele>240</ele>
        <time>2021-03-14T15:11:29Z</time>
      </trkpt>
      <trkpt lat="45.67946" lon="5.01531">
        <ele>242</ele>
        <time>2021-03-14T15:11:38Z</time>
      </trkpt>
      <trkpt lat="45.67938" lon="5.01587">
        <ele>243</ele>
        <time>2021-03-14T15:11:46Z</time>
      </trkpt>
      <trkpt lat="45.67935" lon="5.01652">
        <ele>243</ele>
        <time>2021-03-14T15:11:54Z</time>
      </trkpt>
      <trkpt lat="45.67927" lon="5.01724">
        <ele>244</ele>
        <time>2021-03-14T15:12:03Z</time>
      </trkpt>
      <trkpt lat="45.67908" lon="5.01792">
        <ele>244</ele>
        <time>2021-03-14T15:12:12Z</time>
      </trkpt>
      <trkpt lat="45.67902" lon="5.01884">
        <ele>243</ele>
        <time>2021-03-14T15:12:23Z</time>
      </trkpt>
      <trkpt lat="45.67885" lon="5.01965">
        <ele>244</ele>
        <time>2021-03-14T15:12:34Z</time>
      </trkpt>
      <trkpt lat="45.679" lon="5.02028">
        <ele>246</ele>
        <time>2021-03-14T15:12:42Z</time>
      </trkpt>
      <trkpt lat="45.67908" lon="5.02089">
        <ele>248</ele>
        <time>2021-03-14T15:12:50Z</time>
      </trkpt>
      <trkpt lat="45.67948" lon="5.02109">
        <ele>246</ele>
        <time>2021-03-14T15:12:57Z</time>
      </trkpt>
      <trkpt lat="45.68108" lon="5.02201">
        <ele>254</ele>
        <time>2021-03-14T15:13:28Z</time>
      </trkpt>
      <trkpt lat="45.68151" lon="5.0223">
        <ele>259</ele>
        <time>2021-03-14T15:13:37Z</time>
      </trkpt>
      <trkpt lat="45.68185" lon="5.02263">
        <ele>263</ele>
        <time>2021-03-14T15:13:44Z</time>
      </trkpt>
      <trkpt lat="45.6821" lon="5.02304">
        <ele>267</ele>
        <time>2021-03-14T15:13:51Z</time>
      </trkpt>
      <trkpt lat="45.68247" lon="5.02334">
        <ele>269</ele>
        <time>2021-03-14T15:13:58Z</time>
      </trkpt>
      <trkpt lat="45.68291" lon="5.02365">
        <ele>271</ele>
        <time>2021-03-14T15:14:07Z</time>
      </trkpt>
      <trkpt lat="45.68336" lon="5.0241">
        <ele>271</ele>
        <time>2021-03-14T15:14:17Z</time>
      </trkpt>
      <trkpt lat="45.68359" lon="5.02451">
        <ele>274</ele>
        <time>2021-03-14T15:14:23Z</time>
      </trkpt>
      <trkpt lat="45.68377" lon="5.02503">
        <ele>276</ele>
        <time>2021-03-14T15:14:30Z</time>
      </trkpt>
      <trkpt lat="45.6841" lon="5.02524">
        <ele>277</ele>
        <time>2021-03-14T15:14:37Z</time>
      </trkpt>
      <trkpt lat="45.68449" lon="5.02529">
        <ele>280</ele>
        <time>2021-03-14T15:14:44Z</time>
      </trkpt>
      <trkpt lat="45.68474" lon="5.02478">
        <ele>283</ele>
        <time>2021-03-14T15:14:52Z</time>
      </trkpt>
      <trkpt lat="45.68503" lon="5.02482">
        <ele>285</ele>
        <time>2021-03-14T15:14:57Z</time>
      </trkpt>
      <trkpt lat="45.68536" lon="5.0249">
        <ele>285</ele>
        <time>2021-03-14T15:15:03Z</time>
      </trkpt>
      <trkpt lat="45.68528" lon="5.02607">
        <ele>283</ele>
        <time>2021-03-14T15:15:17Z</time>
      </trkpt>
      <trkpt lat="45.68538" lon="5.0272">
        <ele>281</ele>
        <time>2021-03-14T15:15:31Z</time>
      </trkpt>
      <trkpt lat="45.68529" lon="5.02809">
        <ele>281</ele>
        <time>2021-03-14T15:15:43Z</time>
      </trkpt>
      <trkpt lat="45.68491" lon="5.02889">
        <ele>280</ele>
        <time>2021-03-14T15:15:55Z</time>
      </trkpt>
      <trkpt lat="45.68444" lon="5.02947">
        <ele>280</ele>
        <time>2021-03-14T15:16:06Z</time>
      </trkpt>
      <trkpt lat="45.68425" lon="5.03009">
        <ele>280</ele>
        <time>2021-03-14T15:16:14Z</time>
      </trkpt>
      <trkpt lat="45.68392" lon="5.03171">
        <ele>283</ele>
        <time>2021-03-14T15:16:35Z</time>
      </trkpt>
      <trkpt lat="45.68324" lon="5.03429">
        <ele>281</ele>
        <time>2021-03-14T15:17:09Z</time>
      </trkpt>
      <trkpt lat="45.68297" lon="5.03487">
        <ele>281</ele>
        <time>2021-03-14T15:17:18Z</time>
      </trkpt>
      <trkpt lat="45.68248" lon="5.03576">
        <ele>282</ele>
        <time>2021-03-14T15:17:32Z</time>
      </trkpt>
      <trkpt lat="45.68224" lon="5.03656">
        <ele>282</ele>
        <time>2021-03-14T15:17:43Z</time>
      </trkpt>
      <trkpt lat="45.68216" lon="5.03719">
        <ele>283</ele>
        <time>2021-03-14T15:17:51Z</time>
      </trkpt>
      <trkpt lat="45.68211" lon="5.03889">
        <ele>285</ele>
        <time>2021-03-14T15:18:12Z</time>
      </trkpt>
      <trkpt lat="45.68194" lon="5.03962">
        <ele>286</ele>
        <time>2021-03-14T15:18:22Z</time>
      </trkpt>
      <trkpt lat="45.68167" lon="5.04017">
        <ele>287</ele>
        <time>2021-03-14T15:18:30Z</time>
      </trkpt>
      <trkpt lat="45.68135" lon="5.04094">
        <ele>287</ele>
        <time>2021-03-14T15:18:41Z</time>
      </trkpt>
      <trkpt lat="45.68112" lon="5.04159">
        <ele>288</ele>
        <time>2021-03-14T15:18:50Z</time>
      </trkpt>
      <trkpt lat="45.68059" lon="5.04251">
        <ele>289</ele>
        <time>2021-03-14T15:19:05Z</time>
      </trkpt>
      <trkpt lat="45.67989" lon="5.04404">
        <ele>289</ele>
        <time>2021-03-14T15:19:28Z</time>
      </trkpt>
      <trkpt lat="45.67959" lon="5.04463">
        <ele>289</ele>
        <time>2021-03-14T15:19:37Z</time>
      </trkpt>
      <trkpt lat="45.67851" lon="5.04763">
        <ele>291</ele>
        <time>2021-03-14T15:20:19Z</time>
      </trkpt>
      <trkpt lat="45.67827" lon="5.04808">
        <ele>292</ele>
        <time>2021-03-14T15:20:26Z</time>
      </trkpt>
      <trkpt lat="45.67819" lon="5.04848">
        <ele>291</ele>
        <time>2021-03-14T15:20:31Z</time>
      </trkpt>
      <trkpt lat="45.67799" lon="5.04905">
        <ele>291</ele>
        <time>2021-03-14T15:20:39Z</time>
      </trkpt>
      <trkpt lat="45.67768" lon="5.04975">
        <ele>291</ele>
        <time>2021-03-14T15:20:49Z</time>
      </trkpt>
      <trkpt lat="45.67733" lon="5.05028">
        <ele>290</ele>
        <time>2021-03-14T15:20:58Z</time>
      </trkpt>
      <trkpt lat="45.67689" lon="5.05062">
        <ele>291</ele>
        <time>2021-03-14T15:21:07Z</time>
      </trkpt>
      <trkpt lat="45.67653" lon="5.05096">
        <ele>292</ele>
        <time>2021-03-14T15:21:15Z</time>
      </trkpt>
      <trkpt lat="45.67623" lon="5.05138">
        <ele>292</ele>
        <time>2021-03-14T15:21:22Z</time>
      </trkpt>
      <trkpt lat="45.67593" lon="5.05334">
        <ele>290</ele>
        <time>2021-03-14T15:21:47Z</time>
      </trkpt>
      <trkpt lat="45.67579" lon="5.05383">
        <ele>291</ele>
        <time>2021-03-14T15:21:54Z</time>
      </trkpt>
      <trkpt lat="45.67548" lon="5.05406">
        <ele>292</ele>
        <time>2021-03-14T15:22:00Z</time>
      </trkpt>
      <trkpt lat="45.67516" lon="5.05413">
        <ele>293</ele>
        <time>2021-03-14T15:22:06Z</time>
      </trkpt>
      <trkpt lat="45.67522" lon="5.05501">
        <ele>291</ele>
        <time>2021-03-14T15:22:17Z</time>
      </trkpt>
      <trkpt lat="45.67515" lon="5.05552">
        <ele>291</ele>
        <time>2021-03-14T15:22:23Z</time>
      </trkpt>
      <trkpt lat="45.675" lon="5.05617">
        <ele>290</ele>
        <time>2021-03-14T15:22:32Z</time>
      </trkpt>
      <trkpt lat="45.67509" lon="5.05691">
        <ele>291</ele>
        <time>2021-03-14T15:22:41Z</time>
      </trkpt>
      <trkpt lat="45.67531" lon="5.0575">
        <ele>291</ele>
        <time>2021-03-14T15:22:49Z</time>
      </trkpt>
      <trkpt lat="45.67559" lon="5.05815">
        <ele>290</ele>
        <time>2021-03-14T15:22:59Z</time>
      </trkpt>
      <trkpt lat="45.67578" lon="5.05892">
        <ele>288</ele>
        <time>2021-03-14T15:23:09Z</time>
      </trkpt>
      <trkpt lat="45.67597" lon="5.0594">
        <ele>286</ele>
        <time>2021-03-14T15:23:16Z</time>
      </trkpt>
      <trkpt lat="45.67633" lon="5.05981">
        <ele>282</ele>
        <time>2021-03-14T15:23:24Z</time>
      </trkpt>
      <trkpt lat="45.67695" lon="5.06027">
        <ele>275</ele>
        <time>2021-03-14T15:23:37Z</time>
      </trkpt>
      <trkpt lat="45.67725" lon="5.0606">
        <ele>272</ele>
        <time>2021-03-14T15:23:43Z</time>
      </trkpt>
      <trkpt lat="45.67741" lon="5.06085">
        <ele>271</ele>
        <time>2021-03-14T15:23:47Z</time>
      </trkpt>
      <trkpt lat="45.67774" lon="5.06124">
        <ele>269</ele>
        <time>2021-03-14T15:23:55Z</time>
      </trkpt>
      <trkpt lat="45.67845" lon="5.06194">
        <ele>264</ele>
        <time>2021-03-14T15:24:10Z</time>
      </trkpt>
      <trkpt lat="45.67884" lon="5.06217">
        <ele>260</ele>
        <time>2021-03-14T15:24:18Z</time>
      </trkpt>
      <trkpt lat="45.67889" lon="5.06247">
        <ele>258</ele>
        <time>2021-03-14T15:24:22Z</time>
      </trkpt>
      <trkpt lat="45.67858" lon="5.06327">
        <ele>254</ele>
        <time>2021-03-14T15:24:33Z</time>
      </trkpt>
      <trkpt lat="45.67857" lon="5.06357">
        <ele>252</ele>
        <time>2021-03-14T15:24:37Z</time>
      </trkpt>
      <trkpt lat="45.67871" lon="5.06369">
        <ele>250</ele>
        <time>2021-03-14T15:24:40Z</time>
      </trkpt>
      <trkpt lat="45.67901" lon="5.06342">
        <ele>247</ele>
        <time>2021-03-14T15:24:46Z</time>
      </trkpt>
      <trkpt lat="45.6795" lon="5.06304">
        <ele>246</ele>
        <time>2021-03-14T15:24:56Z</time>
      </trkpt>
      <trkpt lat="45.68011" lon="5.06274">
        <ele>243</ele>
        <time>2021-03-14T15:25:07Z</time>
      </trkpt>
      <trkpt lat="45.68087" lon="5.06237">
        <ele>240</ele>
        <time>2021-03-14T15:25:22Z</time>
      </trkpt>
      <trkpt lat="45.68153" lon="5.0621">
        <ele>237</ele>
        <time>2021-03-14T15:25:34Z</time>
      </trkpt>
      <trkpt lat="45.68211" lon="5.06192">
        <ele>237</ele>
        <time>2021-03-14T15:25:45Z</time>
      </trkpt>
      <trkpt lat="45.68363" lon="5.06128">
        <ele>239</ele>
        <time>2021-03-14T15:26:13Z</time>
      </trkpt>
      <trkpt lat="45.68365" lon="5.06165">
        <ele>238</ele>
        <time>2021-03-14T15:26:17Z</time>
      </trkpt>
      <trkpt lat="45.68322" lon="5.06322">
        <ele>239</ele>
        <time>2021-03-14T15:26:38Z</time>
      </trkpt>
      <trkpt lat="45.68298" lon="5.0637">
        <ele>238</ele>
        <time>2021-03-14T15:26:46Z</time>
      </trkpt>
      <trkpt lat="45.68263" lon="5.06418">
        <ele>238</ele>
        <time>2021-03-14T15:26:54Z</time>
      </trkpt>
      <trkpt lat="45.68192" lon="5.06506">
        <ele>238</ele>
        <time>2021-03-14T15:27:11Z</time>
      </trkpt>
      <trkpt lat="45.68154" lon="5.06567">
        <ele>237</ele>
        <time>2021-03-14T15:27:21Z</time>
      </trkpt>
      <trkpt lat="45.68133" lon="5.06643">
        <ele>240</ele>
        <time>2021-03-14T15:27:31Z</time>
      </trkpt>
      <trkpt lat="45.6813" lon="5.06697">
        <ele>243</ele>
        <time>2021-03-14T15:27:38Z</time>
      </trkpt>
      <trkpt lat="45.68168" lon="5.06795">
        <ele>240</ele>
        <time>2021-03-14T15:27:52Z</time>
      </trkpt>
      <trkpt lat="45.68207" lon="5.06837">
        <ele>239</ele>
        <time>2021-03-14T15:28:01Z</time>
      </trkpt>
      <trkpt lat="45.68254" lon="5.06872">
        <ele>240</ele>
        <time>2021-03-14T15:28:10Z</time>
      </trkpt>
      <trkpt lat="45.68314" lon="5.06882">
        <ele>240</ele>
        <time>2021-03-14T15:28:21Z</time>
      </trkpt>
      <trkpt lat="45.68458" lon="5.06877">
        <ele>242</ele>
        <time>2021-03-14T15:28:46Z</time>
      </trkpt>
      <trkpt lat="45.68591" lon="5.0691">
        <ele>244</ele>
        <time>2021-03-14T15:29:10Z</time>
      </trkpt>
      <trkpt lat="45.68726" lon="5.06959">
        <ele>243</ele>
        <time>2021-03-14T15:29:35Z</time>
      </trkpt>
      <trkpt lat="45.68771" lon="5.0698">
        <ele>244</ele>
        <time>2021-03-14T15:29:44Z</time>
      </trkpt>
      <trkpt lat="45.68782" lon="5.0708">
        <ele>244</ele>
        <time>2021-03-14T15:29:56Z</time>
      </trkpt>
      <trkpt lat="45.68821" lon="5.07378">
        <ele>246</ele>
        <time>2021-03-14T15:30:34Z</time>
      </trkpt>
      <trkpt lat="45.68873" lon="5.07818">
        <ele>246</ele>
        <time>2021-03-14T15:31:29Z</time>
      </trkpt>
      <trkpt lat="45.68881" lon="5.07924">
        <ele>247</ele>
        <time>2021-03-14T15:31:43Z</time>
      </trkpt>
      <trkpt lat="45.6881" lon="5.08314">
        <ele>251</ele>
        <time>2021-03-14T15:32:33Z</time>
      </trkpt>
      <trkpt lat="45.68666" lon="5.09043">
        <ele>256</ele>
        <time>2021-03-14T15:34:07Z</time>
      </trkpt>
      <trkpt lat="45.68603" lon="5.0935">
        <ele>257</ele>
        <time>2021-03-14T15:34:47Z</time>
      </trkpt>
      <trkpt lat="45.68588" lon="5.0951">
        <ele>257</ele>
        <time>2021-03-14T15:35:07Z</time>
      </trkpt>
      <trkpt lat="45.68601" lon="5.09706">
        <ele>259</ele>
        <time>2021-03-14T15:35:31Z</time>
      </trkpt>
      <trkpt lat="45.68597" lon="5.09852">
        <ele>261</ele>
        <time>2021-03-14T15:35:49Z</time>
      </trkpt>
      <trkpt lat="45.68586" lon="5.10035">
        <ele>264</ele>
        <time>2021-03-14T15:36:12Z</time>
      </trkpt>
      <trkpt lat="45.68613" lon="5.10345">
        <ele>270</ele>
        <time>2021-03-14T15:36:51Z</time>
      </trkpt>
      <trkpt lat="45.68623" lon="5.10422">
        <ele>269</ele>
        <time>2021-03-14T15:37:01Z</time>
      </trkpt>
      <trkpt lat="45.68677" lon="5.10542">
        <ele>271</ele>
        <time>2021-03-14T15:37:19Z</time>
      </trkpt>
      <trkpt lat="45.68772" lon="5.10724">
        <ele>273</ele>
        <time>2021-03-14T15:37:47Z</time>
      </trkpt>
      <trkpt lat="45.68793" lon="5.10785">
        <ele>275</ele>
        <time>2021-03-14T15:37:55Z</time>
      </trkpt>
      <trkpt lat="45.68821" lon="5.10821">
        <ele>276</ele>
        <time>2021-03-14T15:38:02Z</time>
      </trkpt>
      <trkpt lat="45.68859" lon="5.10838">
        <ele>277</ele>
        <time>2021-03-14T15:38:09Z</time>
      </trkpt>
      <trkpt lat="45.68925" lon="5.11033">
        <ele>279</ele>
        <time>2021-03-14T15:38:36Z</time>
      </trkpt>
      <trkpt lat="45.6904" lon="5.11154">
        <ele>278</ele>
        <time>2021-03-14T15:39:01Z</time>
      </trkpt>
      <trkpt lat="45.69085" lon="5.11212">
        <ele>277</ele>
        <time>2021-03-14T15:39:12Z</time>
      </trkpt>
      <trkpt lat="45.69129" lon="5.11311">
        <ele>275</ele>
        <time>2021-03-14T15:39:27Z</time>
      </trkpt>
      <trkpt lat="45.6917" lon="5.11432">
        <ele>274</ele>
        <time>2021-03-14T15:39:43Z</time>
      </trkpt>
      <trkpt lat="45.69171" lon="5.11512">
        <ele>272</ele>
        <time>2021-03-14T15:39:53Z</time>
      </trkpt>
      <trkpt lat="45.69195" lon="5.11587">
        <ele>271</ele>
        <time>2021-03-14T15:40:04Z</time>
      </trkpt>
      <trkpt lat="45.69234" lon="5.11885">
        <ele>263</ele>
        <time>2021-03-14T15:40:41Z</time>
      </trkpt>
      <trkpt lat="45.69253" lon="5.11938">
        <ele>262</ele>
        <time>2021-03-14T15:40:49Z</time>
      </trkpt>
      <trkpt lat="45.69264" lon="5.12006">
        <ele>260</ele>
        <time>2021-03-14T15:40:57Z</time>
      </trkpt>
      <trkpt lat="45.69242" lon="5.12177">
        <ele>257</ele>
        <time>2021-03-14T15:41:19Z</time>
      </trkpt>
      <trkpt lat="45.6924" lon="5.12287">
        <ele>256</ele>
        <time>2021-03-14T15:41:33Z</time>
      </trkpt>
      <trkpt lat="45.69274" lon="5.12479">
        <ele>253</ele>
        <time>2021-03-14T15:41:57Z</time>
      </trkpt>
      <trkpt lat="45.6932" lon="5.1266">
        <ele>250</ele>
        <time>2021-03-14T15:42:21Z</time>
      </trkpt>
      <trkpt lat="45.69416" lon="5.12825">
        <ele>247</ele>
        <time>2021-03-14T15:42:48Z</time>
      </trkpt>
      <trkpt lat="45.69334" lon="5.12943">
        <ele>238</ele>
        <time>2021-03-14T15:43:09Z</time>
      </trkpt>
      <trkpt lat="45.69287" lon="5.1299">
        <ele>233</ele>
        <time>2021-03-14T15:43:19Z</time>
      </trkpt>
      <trkpt lat="45.69254" lon="5.12989">
        <ele>231</ele>
        <time>2021-03-14T15:43:25Z</time>
      </trkpt>
      <trkpt lat="45.69202" lon="5.12942">
        <ele>227</ele>
        <time>2021-03-14T15:43:36Z</time>
      </trkpt>
      <trkpt lat="45.69164" lon="5.12887">
        <ele>223</ele>
        <time>2021-03-14T15:43:45Z</time>
      </trkpt>
      <trkpt lat="45.69119" lon="5.12879">
        <ele>219</ele>
        <time>2021-03-14T15:43:53Z</time>
      </trkpt>
      <trkpt lat="45.69069" lon="5.12891">
        <ele>216</ele>
        <time>2021-03-14T15:44:02Z</time>
      </trkpt>
      <trkpt lat="45.69118" lon="5.12982">
        <ele>219</ele>
        <time>2021-03-14T15:44:17Z</time>
      </trkpt>
      <trkpt lat="45.69165" lon="5.13087">
        <ele>219</ele>
        <time>2021-03-14T15:44:32Z</time>
      </trkpt>
      <trkpt lat="45.69192" lon="5.1318">
        <ele>216</ele>
        <time>2021-03-14T15:44:45Z</time>
      </trkpt>
      <trkpt lat="45.69211" lon="5.13234">
        <ele>217</ele>
        <time>2021-03-14T15:44:52Z</time>
      </trkpt>
      <trkpt lat="45.69319" lon="5.13469">
        <ele>216</ele>
        <time>2021-03-14T15:45:27Z</time>
      </trkpt>
      <trkpt lat="45.69363" lon="5.13592">
        <ele>215</ele>
        <time>2021-03-14T15:45:44Z</time>
      </trkpt>
      <trkpt lat="45.69382" lon="5.1374">
        <ele>215</ele>
        <time>2021-03-14T15:46:03Z</time>
      </trkpt>
      <trkpt lat="45.69406" lon="5.13865">
        <ele>215</ele>
        <time>2021-03-14T15:46:19Z</time>
      </trkpt>
      <trkpt lat="45.6944" lon="5.13976">
        <ele>215</ele>
        <time>2021-03-14T15:46:34Z</time>
      </trkpt>
      <trkpt lat="45.69464" lon="5.1408">
        <ele>215</ele>
        <time>2021-03-14T15:46:48Z</time>
      </trkpt>
      <trkpt lat="45.69461" lon="5.14207">
        <ele>213</ele>
        <time>2021-03-14T15:47:04Z</time>
      </trkpt>
      <trkpt lat="45.69464" lon="5.14339">
        <ele>212</ele>
        <time>2021-03-14T15:47:20Z</time>
      </trkpt>
      <trkpt lat="45.69497" lon="5.14406">
        <ele>210</ele>
        <time>2021-03-14T15:47:30Z</time>
      </trkpt>
      <trkpt lat="45.69569" lon="5.14506">
        <ele>209</ele>
        <time>2021-03-14T15:47:48Z</time>
      </trkpt>
      <trkpt lat="45.69624" lon="5.14553">
        <ele>210</ele>
        <time>2021-03-14T15:47:59Z</time>
      </trkpt>
      <trkpt lat="45.69703" lon="5.14611">
        <ele>213</ele>
        <time>2021-03-14T15:48:15Z</time>
      </trkpt>
      <trkpt lat="45.69769" lon="5.14676">
        <ele>213</ele>
        <time>2021-03-14T15:48:29Z</time>
      </trkpt>
      <trkpt lat="45.69927" lon="5.14896">
        <ele>211</ele>
        <time>2021-03-14T15:49:09Z</time>
      </trkpt>
      <trkpt lat="45.69993" lon="5.14973">
        <ele>213</ele>
        <time>2021-03-14T15:49:24Z</time>
      </trkpt>
      <trkpt lat="45.70053" lon="5.15035">
        <ele>213</ele>
        <time>2021-03-14T15:49:37Z</time>
      </trkpt>
      <trkpt lat="45.70108" lon="5.15064">
        <ele>212</ele>
        <time>2021-03-14T15:49:47Z</time>
      </trkpt>
      <trkpt lat="45.70281" lon="5.15076">
        <ele>212</ele>
        <time>2021-03-14T15:50:18Z</time>
      </trkpt>
      <trkpt lat="45.7053" lon="5.15118">
        <ele>208</ele>
        <time>2021-03-14T15:51:03Z</time>
      </trkpt>
      <trkpt lat="45.70589" lon="5.15162">
        <ele>206</ele>
        <time>2021-03-14T15:51:15Z</time>
      </trkpt>
      <trkpt lat="45.70695" lon="5.15209">
        <ele>207</ele>
        <time>2021-03-14T15:51:34Z</time>
      </trkpt>
      <trkpt lat="45.70797" lon="5.15261">
        <ele>207</ele>
        <time>2021-03-14T15:51:54Z</time>
      </trkpt>
      <trkpt lat="45.70886" lon="5.1531">
        <ele>207</ele>
        <time>2021-03-14T15:52:11Z</time>
      </trkpt>
      <trkpt lat="45.70993" lon="5.15348">
        <ele>208</ele>
        <time>2021-03-14T15:52:30Z</time>
      </trkpt>
      <trkpt lat="45.71092" lon="5.15397">
        <ele>208</ele>
        <time>2021-03-14T15:52:49Z</time>
      </trkpt>
      <trkpt lat="45.71197" lon="5.15429">
        <ele>208</ele>
        <time>2021-03-14T15:53:08Z</time>
      </trkpt>
      <trkpt lat="45.71286" lon="5.15481">
        <ele>208</ele>
        <time>2021-03-14T15:53:25Z</time>
      </trkpt>
      <trkpt lat="45.71367" lon="5.15494">
        <ele>208</ele>
        <time>2021-03-14T15:53:40Z</time>
      </trkpt>
      <trkpt lat="45.71426" lon="5.15494">
        <ele>208</ele>
        <time>2021-03-14T15:53:50Z</time>
      </trkpt>
      <trkpt lat="45.71497" lon="5.15489">
        <ele>206</ele>
        <time>2021-03-14T15:54:03Z</time>
      </trkpt>
      <trkpt lat="45.71532" lon="5.15959">
        <ele>207</ele>
        <time>2021-03-14T15:55:01Z</time>
      </trkpt>
      <trkpt lat="45.71552" lon="5.16145">
        <ele>207</ele>
        <time>2021-03-14T15:55:25Z</time>
      </trkpt>
      <trkpt lat="45.71599" lon="5.16171">
        <ele>208</ele>
        <time>2021-03-14T15:55:34Z</time>
      </trkpt>
      <trkpt lat="45.71657" lon="5.1626">
        <ele>208</ele>
        <time>2021-03-14T15:55:49Z</time>
      </trkpt>
      <trkpt lat="45.71754" lon="5.16265">
        <ele>209</ele>
        <time>2021-03-14T15:56:06Z</time>
      </trkpt>
      <trkpt lat="45.71818" lon="5.16233">
        <ele>208</ele>
        <time>2021-03-14T15:56:18Z</time>
      </trkpt>
      <trkpt lat="45.71881" lon="5.16198">
        <ele>208</ele>
        <time>2021-03-14T15:56:30Z</time>
      </trkpt>
      <trkpt lat="45.71942" lon="5.16174">
        <ele>208</ele>
        <time>2021-03-14T15:56:42Z</time>
      </trkpt>
      <trkpt lat="45.71989" lon="5.1618">
        <ele>208</ele>
        <time>2021-03-14T15:56:50Z</time>
      </trkpt>
      <trkpt lat="45.72028" lon="5.1619">
        <ele>208</ele>
        <time>2021-03-14T15:56:57Z</time>
      </trkpt>
      <trkpt lat="45.72115" lon="5.16162">
        <ele>207</ele>
        <time>2021-03-14T15:57:13Z</time>
      </trkpt>
      <trkpt lat="45.722" lon="5.16146">
        <ele>207</ele>
        <time>2021-03-14T15:57:28Z</time>
      </trkpt>
      <trkpt lat="45.7227" lon="5.16126">
        <ele>206</ele>
        <time>2021-03-14T15:57:41Z</time>
      </trkpt>
      <trkpt lat="45.72352" lon="5.1611">
        <ele>206</ele>
        <time>2021-03-14T15:57:56Z</time>
      </trkpt>
      <trkpt lat="45.72414" lon="5.16089">
        <ele>205</ele>
        <time>2021-03-14T15:58:07Z</time>
      </trkpt>
      <trkpt lat="45.72481" lon="5.16078">
        <ele>206</ele>
        <time>2021-03-14T15:58:19Z</time>
      </trkpt>
      <trkpt lat="45.72559" lon="5.16092">
        <ele>205</ele>
        <time>2021-03-14T15:58:33Z</time>
      </trkpt>
      <trkpt lat="45.72722" lon="5.16147">
        <ele>207</ele>
        <time>2021-03-14T15:59:03Z</time>
      </trkpt>
      <trkpt lat="45.72793" lon="5.1615">
        <ele>206</ele>
        <time>2021-03-14T15:59:15Z</time>
      </trkpt>
      <trkpt lat="45.72864" lon="5.16171">
        <ele>206</ele>
        <time>2021-03-14T15:59:28Z</time>
      </trkpt>
      <trkpt lat="45.72914" lon="5.1619">
        <ele>207</ele>
        <time>2021-03-14T15:59:37Z</time>
      </trkpt>
      <trkpt lat="45.73193" lon="5.16504">
        <ele>209</ele>
        <time>2021-03-14T16:00:40Z</time>
      </trkpt>
      <trkpt lat="45.73295" lon="5.16609">
        <ele>209</ele>
        <time>2021-03-14T16:01:03Z</time>
      </trkpt>
      <trkpt lat="45.7335" lon="5.16674">
        <ele>210</ele>
        <time>2021-03-14T16:01:16Z</time>
      </trkpt>
      <trkpt lat="45.73506" lon="5.16881">
        <ele>207</ele>
        <time>2021-03-14T16:01:53Z</time>
      </trkpt>
      <trkpt lat="45.73576" lon="5.17009">
        <ele>206</ele>
        <time>2021-03-14T16:02:14Z</time>
      </trkpt>
      <trkpt lat="45.73638" lon="5.17108">
        <ele>206</ele>
        <time>2021-03-14T16:02:30Z</time>
      </trkpt>
      <trkpt lat="45.73756" lon="5.17251">
        <ele>206</ele>
        <time>2021-03-14T16:02:58Z</time>
      </trkpt>
      <trkpt lat="45.73896" lon="5.17282">
        <ele>207</ele>
        <time>2021-03-14T16:03:23Z</time>
      </trkpt>
      <trkpt lat="45.73954" lon="5.17291">
        <ele>207</ele>
        <time>2021-03-14T16:03:33Z</time>
      </trkpt>
      <trkpt lat="45.74044" lon="5.17291">
        <ele>209</ele>
        <time>2021-03-14T16:03:49Z</time>
      </trkpt>
      <trkpt lat="45.74207" lon="5.173">
        <ele>212</ele>
        <time>2021-03-14T16:04:18Z</time>
      </trkpt>
      <trkpt lat="45.743" lon="5.17365">
        <ele>210</ele>
        <time>2021-03-14T16:04:37Z</time>
      </trkpt>
      <trkpt lat="45.74304" lon="5.17407">
        <ele>209</ele>
        <time>2021-03-14T16:04:42Z</time>
      </trkpt>
      <trkpt lat="45.74301" lon="5.17453">
        <ele>209</ele>
        <time>2021-03-14T16:04:48Z</time>
      </trkpt>
      <trkpt lat="45.74296" lon="5.17485">
        <ele>209</ele>
        <time>2021-03-14T16:04:52Z</time>
      </trkpt>
      <trkpt lat="45.74295" lon="5.17596">
        <ele>207</ele>
        <time>2021-03-14T16:05:05Z</time>
      </trkpt>
      <trkpt lat="45.74307" lon="5.17621">
        <ele>207</ele>
        <time>2021-03-14T16:05:09Z</time>
      </trkpt>
      <trkpt lat="45.7433" lon="5.17639">
        <ele>206</ele>
        <time>2021-03-14T16:05:14Z</time>
      </trkpt>
      <trkpt lat="45.74346" lon="5.17666">
        <ele>206</ele>
        <time>2021-03-14T16:05:18Z</time>
      </trkpt>
      <trkpt lat="45.74358" lon="5.17716">
        <ele>205</ele>
        <time>2021-03-14T16:05:25Z</time>
      </trkpt>
      <trkpt lat="45.74365" lon="5.17758">
        <ele>205</ele>
        <time>2021-03-14T16:05:30Z</time>
      </trkpt>
      <trkpt lat="45.74373" lon="5.17762">
        <ele>205</ele>
        <time>2021-03-14T16:05:32Z</time>
      </trkpt>
      <trkpt lat="45.74395" lon="5.17753">
        <ele>205</ele>
        <time>2021-03-14T16:05:36Z</time>
      </trkpt>
      <trkpt lat="45.74418" lon="5.17732">
        <ele>205</ele>
        <time>2021-03-14T16:05:41Z</time>
      </trkpt>
      <trkpt lat="45.74447" lon="5.17717">
        <ele>205</ele>
        <time>2021-03-14T16:05:46Z</time>
      </trkpt>
      <trkpt lat="45.7456" lon="5.17667">
        <ele>207</ele>
        <time>2021-03-14T16:06:07Z</time>
      </trkpt>
      <trkpt lat="45.74569" lon="5.17648">
        <ele>207</ele>
        <time>2021-03-14T16:06:10Z</time>
      </trkpt>
      <trkpt lat="45.74641" lon="5.17624">
        <ele>208</ele>
        <time>2021-03-14T16:06:23Z</time>
      </trkpt>
      <trkpt lat="45.74696" lon="5.17601">
        <ele>207</ele>
        <time>2021-03-14T16:06:33Z</time>
      </trkpt>
      <trkpt lat="45.7482" lon="5.17607">
        <ele>206</ele>
        <time>2021-03-14T16:06:55Z</time>
      </trkpt>
      <trkpt lat="45.74921" lon="5.17615">
        <ele>206</ele>
        <time>2021-03-14T16:07:13Z</time>
      </trkpt>
      <trkpt lat="45.7499" lon="5.17615">
        <ele>205</ele>
        <time>2021-03-14T16:07:26Z</time>
      </trkpt>
      <trkpt lat="45.75041" lon="5.17636">
        <ele>204</ele>
        <time>2021-03-14T16:07:35Z</time>
      </trkpt>
      <trkpt lat="45.75052" lon="5.17694">
        <ele>204</ele>
        <time>2021-03-14T16:07:43Z</time>
      </trkpt>
      <trkpt lat="45.75256" lon="5.18038">
        <ele>204</ele>
        <time>2021-03-14T16:08:39Z</time>
      </trkpt>
      <trkpt lat="45.75377" lon="5.18223">
        <ele>207</ele>
        <time>2021-03-14T16:09:10Z</time>
      </trkpt>
      <trkpt lat="45.75488" lon="5.183">
        <ele>207</ele>
        <time>2021-03-14T16:09:32Z</time>
      </trkpt>
      <trkpt lat="45.75616" lon="5.18393">
        <ele>204</ele>
        <time>2021-03-14T16:09:58Z</time>
      </trkpt>
      <trkpt lat="45.75728" lon="5.18488">
        <ele>203</ele>
        <time>2021-03-14T16:10:21Z</time>
      </trkpt>
      <trkpt lat="45.75821" lon="5.18593">
        <ele>203</ele>
        <time>2021-03-14T16:10:42Z</time>
      </trkpt>
      <trkpt lat="45.76052" lon="5.1888">
        <ele>202</ele>
        <time>2021-03-14T16:11:36Z</time>
      </trkpt>
      <trkpt lat="45.76209" lon="5.19082">
        <ele>202</ele>
        <time>2021-03-14T16:12:14Z</time>
      </trkpt>
      <trkpt lat="45.76336" lon="5.19235">
        <ele>204</ele>
        <time>2021-03-14T16:12:43Z</time>
      </trkpt>
      <trkpt lat="45.76459" lon="5.19388">
        <ele>203</ele>
        <time>2021-03-14T16:13:12Z</time>
      </trkpt>
      <trkpt lat="45.76591" lon="5.19524">
        <ele>200</ele>
        <time>2021-03-14T16:13:41Z</time>
      </trkpt>
      <trkpt lat="45.76643" lon="5.19565">
        <ele>200</ele>
        <time>2021-03-14T16:13:52Z</time>
      </trkpt>
      <trkpt lat="45.76645" lon="5.19585">
        <ele>200</ele>
        <time>2021-03-14T16:13:54Z</time>
      </trkpt>
      <trkpt lat="45.76655" lon="5.19599">
        <ele>200</ele>
        <time>2021-03-14T16:13:57Z</time>
      </trkpt>
      <trkpt lat="45.76669" lon="5.19606">
        <ele>200</ele>
        <time>2021-03-14T16:13:59Z</time>
      </trkpt>
      <trkpt lat="45.76682" lon="5.19616">
        <ele>200</ele>
        <time>2021-03-14T16:14:02Z</time>
      </trkpt>
      <trkpt lat="45.76706" lon="5.1967">
        <ele>200</ele>
        <time>2021-03-14T16:14:10Z</time>
      </trkpt>
      <trkpt lat="45.76737" lon="5.19717">
        <ele>199</ele>
        <time>2021-03-14T16:14:18Z</time>
      </trkpt>
      <trkpt lat="45.76877" lon="5.19898">
        <ele>198</ele>
        <time>2021-03-14T16:14:52Z</time>
      </trkpt>
      <trkpt lat="45.76908" lon="5.19952">
        <ele>196</ele>
        <time>2021-03-14T16:15:00Z</time>
      </trkpt>
      <trkpt lat="45.76916" lon="5.1997">
        <ele>196</ele>
        <time>2021-03-14T16:15:03Z</time>
      </trkpt>
      <trkpt lat="45.76924" lon="5.2001">
        <ele>195</ele>
        <time>2021-03-14T16:15:08Z</time>
      </trkpt>
      <trkpt lat="45.76924" lon="5.20029">
        <ele>195</ele>
        <time>2021-03-14T16:15:10Z</time>
      </trkpt>
      <trkpt lat="45.76902" lon="5.2027">
        <ele>193</ele>
        <time>2021-03-14T16:15:41Z</time>
      </trkpt>
      <trkpt lat="45.76895" lon="5.2041">
        <ele>194</ele>
        <time>2021-03-14T16:15:58Z</time>
      </trkpt>
      <trkpt lat="45.7688" lon="5.20493">
        <ele>195</ele>
        <time>2021-03-14T16:16:09Z</time>
      </trkpt>
      <trkpt lat="45.76873" lon="5.20512">
        <ele>196</ele>
        <time>2021-03-14T16:16:11Z</time>
      </trkpt>
      <trkpt lat="45.76864" lon="5.20528">
        <ele>196</ele>
        <time>2021-03-14T16:16:14Z</time>
      </trkpt>
      <trkpt lat="45.76859" lon="5.20546">
        <ele>196</ele>
        <time>2021-03-14T16:16:16Z</time>
      </trkpt>
      <trkpt lat="45.7686" lon="5.20566">
        <ele>196</ele>
        <time>2021-03-14T16:16:19Z</time>
      </trkpt>
      <trkpt lat="45.76868" lon="5.20584">
        <ele>196</ele>
        <time>2021-03-14T16:16:21Z</time>
      </trkpt>
      <trkpt lat="45.76873" lon="5.20603">
        <ele>196</ele>
        <time>2021-03-14T16:16:24Z</time>
      </trkpt>
      <trkpt lat="45.76914" lon="5.20563">
        <ele>195</ele>
        <time>2021-03-14T16:16:33Z</time>
      </trkpt>
      <trkpt lat="45.76979" lon="5.20571">
        <ele>194</ele>
        <time>2021-03-14T16:16:44Z</time>
      </trkpt>
      <trkpt lat="45.77076" lon="5.20575">
        <ele>194</ele>
        <time>2021-03-14T16:17:02Z</time>
      </trkpt>
      <trkpt lat="45.77242" lon="5.20567">
        <ele>192</ele>
        <time>2021-03-14T16:17:31Z</time>
      </trkpt>
      <trkpt lat="45.77304" lon="5.20559">
        <ele>195</ele>
        <time>2021-03-14T16:17:42Z</time>
      </trkpt>
      <trkpt lat="45.77356" lon="5.20559">
        <ele>196</ele>
        <time>2021-03-14T16:17:51Z</time>
      </trkpt>
      <trkpt lat="45.77398" lon="5.20555">
        <ele>195</ele>
        <time>2021-03-14T16:17:59Z</time>
      </trkpt>
      <trkpt lat="45.77461" lon="5.20624">
        <ele>194</ele>
        <time>2021-03-14T16:18:13Z</time>
      </trkpt>
      <trkpt lat="45.77541" lon="5.20738">
        <ele>194</ele>
        <time>2021-03-14T16:18:33Z</time>
      </trkpt>
      <trkpt lat="45.77601" lon="5.20804">
        <ele>193</ele>
        <time>2021-03-14T16:18:47Z</time>
      </trkpt>
      <trkpt lat="45.77661" lon="5.20886">
        <ele>192</ele>
        <time>2021-03-14T16:19:01Z</time>
      </trkpt>
      <trkpt lat="45.77721" lon="5.21">
        <ele>195</ele>
        <time>2021-03-14T16:19:19Z</time>
      </trkpt>
      <trkpt lat="45.7778" lon="5.21131">
        <ele>195</ele>
        <time>2021-03-14T16:19:38Z</time>
      </trkpt>
      <trkpt lat="45.77974" lon="5.21486">
        <ele>195</ele>
        <time>2021-03-14T16:20:34Z</time>
      </trkpt>
      <trkpt lat="45.77994" lon="5.21572">
        <ele>195</ele>
        <time>2021-03-14T16:20:46Z</time>
      </trkpt>
      <trkpt lat="45.78034" lon="5.21597">
        <ele>195</ele>
        <time>2021-03-14T16:20:53Z</time>
      </trkpt>
      <trkpt lat="45.7808" lon="5.21662">
        <ele>192</ele>
        <time>2021-03-14T16:21:05Z</time>
      </trkpt>
      <trkpt lat="45.7812" lon="5.21748">
        <ele>192</ele>
        <time>2021-03-14T16:21:18Z</time>
      </trkpt>
      <trkpt lat="45.78157" lon="5.21875">
        <ele>194</ele>
        <time>2021-03-14T16:21:35Z</time>
      </trkpt>
      <trkpt lat="45.78208" lon="5.21924">
        <ele>195</ele>
        <time>2021-03-14T16:21:46Z</time>
      </trkpt>
      <trkpt lat="45.7835" lon="5.2201">
        <ele>194</ele>
        <time>2021-03-14T16:22:13Z</time>
      </trkpt>
      <trkpt lat="45.78496" lon="5.22087">
        <ele>194</ele>
        <time>2021-03-14T16:22:41Z</time>
      </trkpt>
      <trkpt lat="45.78673" lon="5.22206">
        <ele>194</ele>
        <time>2021-03-14T16:23:16Z</time>
      </trkpt>
      <trkpt lat="45.78841" lon="5.22288">
        <ele>193</ele>
        <time>2021-03-14T16:23:47Z</time>
      </trkpt>
      <trkpt lat="45.78972" lon="5.22369">
        <ele>194</ele>
        <time>2021-03-14T16:24:13Z</time>
      </trkpt>
      <trkpt lat="45.79129" lon="5.22451">
        <ele>194</ele>
        <time>2021-03-14T16:24:42Z</time>
      </trkpt>
      <trkpt lat="45.79294" lon="5.22553">
        <ele>195</ele>
        <time>2021-03-14T16:25:14Z</time>
      </trkpt>
      <trkpt lat="45.79465" lon="5.22651">
        <ele>195</ele>
        <time>2021-03-14T16:25:47Z</time>
      </trkpt>
      <trkpt lat="45.79573" lon="5.22721">
        <ele>195</ele>
        <time>2021-03-14T16:26:08Z</time>
      </trkpt>
      <trkpt lat="45.79659" lon="5.22792">
        <ele>195</ele>
        <time>2021-03-14T16:26:26Z</time>
      </trkpt>
      <trkpt lat="45.7975" lon="5.22962">
        <ele>196</ele>
        <time>2021-03-14T16:26:52Z</time>
      </trkpt>
      <trkpt lat="45.79855" lon="5.23138">
        <ele>197</ele>
        <time>2021-03-14T16:27:21Z</time>
      </trkpt>
      <trkpt lat="45.79924" lon="5.23273">
        <ele>198</ele>
        <time>2021-03-14T16:27:42Z</time>
      </trkpt>
      <trkpt lat="45.80029" lon="5.23469">
        <ele>197</ele>
        <time>2021-03-14T16:28:13Z</time>
      </trkpt>
      <trkpt lat="45.80095" lon="5.23575">
        <ele>197</ele>
        <time>2021-03-14T16:28:30Z</time>
      </trkpt>
      <trkpt lat="45.8016" lon="5.23702">
        <ele>198</ele>
        <time>2021-03-14T16:28:50Z</time>
      </trkpt>
      <trkpt lat="45.80251" lon="5.23804">
        <ele>197</ele>
        <time>2021-03-14T16:29:10Z</time>
      </trkpt>
      <trkpt lat="45.80354" lon="5.2389">
        <ele>199</ele>
        <time>2021-03-14T16:29:31Z</time>
      </trkpt>
      <trkpt lat="45.80448" lon="5.23955">
        <ele>200</ele>
        <time>2021-03-14T16:29:50Z</time>
      </trkpt>
      <trkpt lat="45.80545" lon="5.24033">
        <ele>201</ele>
        <time>2021-03-14T16:30:10Z</time>
      </trkpt>
      <trkpt lat="45.80762" lon="5.24094">
        <ele>200</ele>
        <time>2021-03-14T16:30:49Z</time>
      </trkpt>
      <trkpt lat="45.80836" lon="5.24119">
        <ele>199</ele>
        <time>2021-03-14T16:31:03Z</time>
      </trkpt>
      <trkpt lat="45.80927" lon="5.24078">
        <ele>200</ele>
        <time>2021-03-14T16:31:20Z</time>
      </trkpt>
      <trkpt lat="45.81032" lon="5.24053">
        <ele>199</ele>
        <time>2021-03-14T16:31:39Z</time>
      </trkpt>
      <trkpt lat="45.81092" lon="5.24017">
        <ele>199</ele>
        <time>2021-03-14T16:31:50Z</time>
      </trkpt>
      <trkpt lat="45.81158" lon="5.24017">
        <ele>201</ele>
        <time>2021-03-14T16:32:02Z</time>
      </trkpt>
      <trkpt lat="45.81377" lon="5.24111">
        <ele>200</ele>
        <time>2021-03-14T16:32:43Z</time>
      </trkpt>
      <trkpt lat="45.81554" lon="5.2418">
        <ele>200</ele>
        <time>2021-03-14T16:33:15Z</time>
      </trkpt>
      <trkpt lat="45.81685" lon="5.24262">
        <ele>201</ele>
        <time>2021-03-14T16:33:41Z</time>
      </trkpt>
      <trkpt lat="45.81807" lon="5.24331">
        <ele>202</ele>
        <time>2021-03-14T16:34:04Z</time>
      </trkpt>
      <trkpt lat="45.81913" lon="5.24368">
        <ele>203</ele>
        <time>2021-03-14T16:34:23Z</time>
      </trkpt>
      <trkpt lat="45.82001" lon="5.24376">
        <ele>202</ele>
        <time>2021-03-14T16:34:39Z</time>
      </trkpt>
      <trkpt lat="45.82083" lon="5.24401">
        <ele>202</ele>
        <time>2021-03-14T16:34:54Z</time>
      </trkpt>
      <trkpt lat="45.82197" lon="5.24755">
        <ele>205</ele>
        <time>2021-03-14T16:35:42Z</time>
      </trkpt>
      <trkpt lat="45.82251" lon="5.24908">
        <ele>209</ele>
        <time>2021-03-14T16:36:04Z</time>
      </trkpt>
      <trkpt lat="45.82311" lon="5.25022">
        <ele>207</ele>
        <time>2021-03-14T16:36:21Z</time>
      </trkpt>
      <trkpt lat="45.82394" lon="5.25132">
        <ele>208</ele>
        <time>2021-03-14T16:36:41Z</time>
      </trkpt>
      <trkpt lat="45.82494" lon="5.25222">
        <ele>209</ele>
        <time>2021-03-14T16:37:02Z</time>
      </trkpt>
      <trkpt lat="45.82571" lon="5.25341">
        <ele>212</ele>
        <time>2021-03-14T16:37:23Z</time>
      </trkpt>
      <trkpt lat="45.82676" lon="5.25701">
        <ele>207</ele>
        <time>2021-03-14T16:38:11Z</time>
      </trkpt>
      <trkpt lat="45.8271" lon="5.25856">
        <ele>208</ele>
        <time>2021-03-14T16:38:31Z</time>
      </trkpt>
      <trkpt lat="45.82713" lon="5.26052">
        <ele>208</ele>
        <time>2021-03-14T16:38:55Z</time>
      </trkpt>
      <trkpt lat="45.82727" lon="5.26367">
        <ele>209</ele>
        <time>2021-03-14T16:39:35Z</time>
      </trkpt>
      <trkpt lat="45.82739" lon="5.26522">
        <ele>210</ele>
        <time>2021-03-14T16:39:54Z</time>
      </trkpt>
      <trkpt lat="45.82767" lon="5.26714">
        <ele>210</ele>
        <time>2021-03-14T16:40:18Z</time>
      </trkpt>
      <trkpt lat="45.82809" lon="5.26837">
        <ele>210</ele>
        <time>2021-03-14T16:40:35Z</time>
      </trkpt>
      <trkpt lat="45.82852" lon="5.26988">
        <ele>209</ele>
        <time>2021-03-14T16:40:55Z</time>
      </trkpt>
      <trkpt lat="45.82898" lon="5.27115">
        <ele>208</ele>
        <time>2021-03-14T16:41:13Z</time>
      </trkpt>
      <trkpt lat="45.82969" lon="5.27184">
        <ele>208</ele>
        <time>2021-03-14T16:41:28Z</time>
      </trkpt>
      <trkpt lat="45.83223" lon="5.27303">
        <ele>208</ele>
        <time>2021-03-14T16:42:16Z</time>
      </trkpt>
      <trkpt lat="45.8334" lon="5.27364">
        <ele>208</ele>
        <time>2021-03-14T16:42:38Z</time>
      </trkpt>
      <trkpt lat="45.83439" lon="5.27401">
        <ele>208</ele>
        <time>2021-03-14T16:42:56Z</time>
      </trkpt>
      <trkpt lat="45.83527" lon="5.27454">
        <ele>208</ele>
        <time>2021-03-14T16:43:13Z</time>
      </trkpt>
      <trkpt lat="45.83599" lon="5.27536">
        <ele>208</ele>
        <time>2021-03-14T16:43:30Z</time>
      </trkpt>
      <trkpt lat="45.83676" lon="5.27585">
        <ele>210</ele>
        <time>2021-03-14T16:43:45Z</time>
      </trkpt>
      <trkpt lat="45.83789" lon="5.27634">
        <ele>208</ele>
        <time>2021-03-14T16:44:06Z</time>
      </trkpt>
      <trkpt lat="45.83895" lon="5.27715">
        <ele>206</ele>
        <time>2021-03-14T16:44:27Z</time>
      </trkpt>
      <trkpt lat="45.83809" lon="5.28145">
        <ele>208</ele>
        <time>2021-03-14T16:45:22Z</time>
      </trkpt>
      <trkpt lat="45.83784" lon="5.28292">
        <ele>207</ele>
        <time>2021-03-14T16:45:41Z</time>
      </trkpt>
      <trkpt lat="45.83778" lon="5.28366">
        <ele>207</ele>
        <time>2021-03-14T16:45:50Z</time>
      </trkpt>
      <trkpt lat="45.84228" lon="5.28558">
        <ele>211</ele>
        <time>2021-03-14T16:47:14Z</time>
      </trkpt>
      <trkpt lat="45.84316" lon="5.28599">
        <ele>212</ele>
        <time>2021-03-14T16:47:30Z</time>
      </trkpt>
      <trkpt lat="45.8439" lon="5.28586">
        <ele>211</ele>
        <time>2021-03-14T16:47:44Z</time>
      </trkpt>
      <trkpt lat="45.8449" lon="5.28541">
        <ele>213</ele>
        <time>2021-03-14T16:48:02Z</time>
      </trkpt>
      <trkpt lat="45.84564" lon="5.28521">
        <ele>213</ele>
        <time>2021-03-14T16:48:16Z</time>
      </trkpt>
      <trkpt lat="45.84675" lon="5.28476">
        <ele>212</ele>
        <time>2021-03-14T16:48:36Z</time>
      </trkpt>
      <trkpt lat="45.84755" lon="5.28427">
        <ele>212</ele>
        <time>2021-03-14T16:48:52Z</time>
      </trkpt>
      <trkpt lat="45.84877" lon="5.28321">
        <ele>214</ele>
        <time>2021-03-14T16:49:17Z</time>
      </trkpt>
      <trkpt lat="45.85131" lon="5.28125">
        <ele>212</ele>
        <time>2021-03-14T16:50:08Z</time>
      </trkpt>
      <trkpt lat="45.8518" lon="5.2806">
        <ele>211</ele>
        <time>2021-03-14T16:50:20Z</time>
      </trkpt>
      <trkpt lat="45.85304" lon="5.27977">
        <ele>213</ele>
        <time>2021-03-14T16:50:45Z</time>
      </trkpt>
      <trkpt lat="45.85392" lon="5.27908">
        <ele>213</ele>
        <time>2021-03-14T16:51:02Z</time>
      </trkpt>
      <trkpt lat="45.85566" lon="5.27846">
        <ele>215</ele>
        <time>2021-03-14T16:51:34Z</time>
      </trkpt>
      <trkpt lat="45.85689" lon="5.27851">
        <ele>217</ele>
        <time>2021-03-14T16:51:56Z</time>
      </trkpt>
      <trkpt lat="45.85834" lon="5.27879">
        <ele>216</ele>
        <time>2021-03-14T16:52:22Z</time>
      </trkpt>
      <trkpt lat="45.86011" lon="5.27892">
        <ele>213</ele>
        <time>2021-03-14T16:52:54Z</time>
      </trkpt>
      <trkpt lat="45.86187" lon="5.28464">
        <ele>215</ele>
        <time>2021-03-14T16:54:11Z</time>
      </trkpt>
      <trkpt lat="45.86238" lon="5.28607">
        <ele>213</ele>
        <time>2021-03-14T16:54:31Z</time>
      </trkpt>
      <trkpt lat="45.86315" lon="5.2868">
        <ele>213</ele>
        <time>2021-03-14T16:54:48Z</time>
      </trkpt>
      <trkpt lat="45.86446" lon="5.28754">
        <ele>212</ele>
        <time>2021-03-14T16:55:13Z</time>
      </trkpt>
      <trkpt lat="45.8658" lon="5.28819">
        <ele>212</ele>
        <time>2021-03-14T16:55:38Z</time>
      </trkpt>
      <trkpt lat="45.86696" lon="5.28881">
        <ele>214</ele>
        <time>2021-03-14T16:56:00Z</time>
      </trkpt>
      <trkpt lat="45.86779" lon="5.28946">
        <ele>215</ele>
        <time>2021-03-14T16:56:17Z</time>
      </trkpt>
      <trkpt lat="45.86984" lon="5.29253">
        <ele>214</ele>
        <time>2021-03-14T16:57:09Z</time>
      </trkpt>
      <trkpt lat="45.87035" lon="5.29323">
        <ele>215</ele>
        <time>2021-03-14T16:57:22Z</time>
      </trkpt>
      <trkpt lat="45.87117" lon="5.29465">
        <ele>214</ele>
        <time>2021-03-14T16:57:45Z</time>
      </trkpt>
      <trkpt lat="45.87248" lon="5.29645">
        <ele>215</ele>
        <time>2021-03-14T16:58:17Z</time>
      </trkpt>
      <trkpt lat="45.87354" lon="5.29825">
        <ele>218</ele>
        <time>2021-03-14T16:58:46Z</time>
      </trkpt>
      <trkpt lat="45.8747" lon="5.29997">
        <ele>217</ele>
        <time>2021-03-14T16:59:16Z</time>
      </trkpt>
      <trkpt lat="45.87699" lon="5.30327">
        <ele>218</ele>
        <time>2021-03-14T17:00:14Z</time>
      </trkpt>
      <trkpt lat="45.87778" lon="5.30483">
        <ele>217</ele>
        <time>2021-03-14T17:00:38Z</time>
      </trkpt>
      <trkpt lat="45.87903" lon="5.30884">
        <ele>211</ele>
        <time>2021-03-14T17:01:32Z</time>
      </trkpt>
      <trkpt lat="45.87971" lon="5.31088">
        <ele>209</ele>
        <time>2021-03-14T17:02:00Z</time>
      </trkpt>
      <trkpt lat="45.88051" lon="5.31227">
        <ele>210</ele>
        <time>2021-03-14T17:02:22Z</time>
      </trkpt>
      <trkpt lat="45.88099" lon="5.31333">
        <ele>209</ele>
        <time>2021-03-14T17:02:38Z</time>
      </trkpt>
      <trkpt lat="45.88165" lon="5.31521">
        <ele>210</ele>
        <time>2021-03-14T17:03:04Z</time>
      </trkpt>
      <trkpt lat="45.88236" lon="5.31656">
        <ele>211</ele>
        <time>2021-03-14T17:03:25Z</time>
      </trkpt>
      <trkpt lat="45.88353" lon="5.31819">
        <ele>215</ele>
        <time>2021-03-14T17:03:54Z</time>
      </trkpt>
      <trkpt lat="45.88469" lon="5.32138">
        <ele>212</ele>
        <time>2021-03-14T17:04:39Z</time>
      </trkpt>
      <trkpt lat="45.88711" lon="5.32678">
        <ele>213</ele>
        <time>2021-03-14T17:05:58Z</time>
      </trkpt>
      <trkpt lat="45.88754" lon="5.32801">
        <ele>214</ele>
        <time>2021-03-14T17:06:15Z</time>
      </trkpt>
      <trkpt lat="45.88848" lon="5.32894">
        <ele>214</ele>
        <time>2021-03-14T17:06:36Z</time>
      </trkpt>
      <trkpt lat="45.88832" lon="5.32981">
        <ele>213</ele>
        <time>2021-03-14T17:06:47Z</time>
      </trkpt>
      <trkpt lat="45.88837" lon="5.33082">
        <ele>215</ele>
        <time>2021-03-14T17:06:59Z</time>
      </trkpt>
      <trkpt lat="45.88859" lon="5.33171">
        <ele>215</ele>
        <time>2021-03-14T17:07:11Z</time>
      </trkpt>
      <trkpt lat="45.88881" lon="5.33244">
        <ele>215</ele>
        <time>2021-03-14T17:07:21Z</time>
      </trkpt>
      <trkpt lat="45.88886" lon="5.33333">
        <ele>219</ele>
        <time>2021-03-14T17:07:32Z</time>
      </trkpt>
      <trkpt lat="45.88846" lon="5.33422">
        <ele>223</ele>
        <time>2021-03-14T17:07:45Z</time>
      </trkpt>
      <trkpt lat="45.888" lon="5.335">
        <ele>221</ele>
        <time>2021-03-14T17:07:58Z</time>
      </trkpt>
      <trkpt lat="45.88767" lon="5.33581">
        <ele>220</ele>
        <time>2021-03-14T17:08:09Z</time>
      </trkpt>
      <trkpt lat="45.88746" lon="5.33663">
        <ele>218</ele>
        <time>2021-03-14T17:08:20Z</time>
      </trkpt>
      <trkpt lat="45.88708" lon="5.33759">
        <ele>214</ele>
        <time>2021-03-14T17:08:34Z</time>
      </trkpt>
      <trkpt lat="45.88665" lon="5.33821">
        <ele>212</ele>
        <time>2021-03-14T17:08:45Z</time>
      </trkpt>
      <trkpt lat="45.88633" lon="5.33914">
        <ele>211</ele>
        <time>2021-03-14T17:08:57Z</time>
      </trkpt>
      <trkpt lat="45.88552" lon="5.34174">
        <ele>206</ele>
        <time>2021-03-14T17:09:33Z</time>
      </trkpt>
      <trkpt lat="45.88544" lon="5.34271">
        <ele>206</ele>
        <time>2021-03-14T17:09:45Z</time>
      </trkpt>
      <trkpt lat="45.88517" lon="5.34379">
        <ele>205</ele>
        <time>2021-03-14T17:09:59Z</time>
      </trkpt>
      <trkpt lat="45.88503" lon="5.34426">
        <ele>203</ele>
        <time>2021-03-14T17:10:05Z</time>
      </trkpt>
      <trkpt lat="45.88414" lon="5.34529">
        <ele>201</ele>
        <time>2021-03-14T17:10:26Z</time>
      </trkpt>
      <trkpt lat="45.88482" lon="5.34673">
        <ele>201</ele>
        <time>2021-03-14T17:10:47Z</time>
      </trkpt>
      <trkpt lat="45.8847" lon="5.34729">
        <ele>202</ele>
        <time>2021-03-14T17:10:54Z</time>
      </trkpt>
      <trkpt lat="45.88376" lon="5.34755">
        <ele>201</ele>
        <time>2021-03-14T17:11:11Z</time>
      </trkpt>
      <trkpt lat="45.88064" lon="5.34751">
        <ele>200</ele>
        <time>2021-03-14T17:12:07Z</time>
      </trkpt>
      <trkpt lat="45.87825" lon="5.34768">
        <ele>199</ele>
        <time>2021-03-14T17:12:50Z</time>
      </trkpt>
      <trkpt lat="45.87753" lon="5.34728">
        <ele>200</ele>
        <time>2021-03-14T17:13:03Z</time>
      </trkpt>
      <trkpt lat="45.87624" lon="5.34646">
        <ele>204</ele>
        <time>2021-03-14T17:13:28Z</time>
      </trkpt>
      <trkpt lat="45.87222" lon="5.34364">
        <ele>206</ele>
        <time>2021-03-14T17:14:48Z</time>
      </trkpt>
      <trkpt lat="45.87125" lon="5.34313">
        <ele>209</ele>
        <time>2021-03-14T17:15:06Z</time>
      </trkpt>
      <trkpt lat="45.87028" lon="5.34298">
        <ele>213</ele>
        <time>2021-03-14T17:15:24Z</time>
      </trkpt>
      <trkpt lat="45.86917" lon="5.34271">
        <ele>216</ele>
        <time>2021-03-14T17:15:44Z</time>
      </trkpt>
      <trkpt lat="45.86853" lon="5.34259">
        <ele>218</ele>
        <time>2021-03-14T17:15:55Z</time>
      </trkpt>
      <trkpt lat="45.86761" lon="5.34286">
        <ele>218</ele>
        <time>2021-03-14T17:16:12Z</time>
      </trkpt>
      <trkpt lat="45.86712" lon="5.3429">
        <ele>217</ele>
        <time>2021-03-14T17:16:21Z</time>
      </trkpt>
      <trkpt lat="45.86572" lon="5.34321">
        <ele>218</ele>
        <time>2021-03-14T17:16:46Z</time>
      </trkpt>
      <trkpt lat="45.86316" lon="5.34263">
        <ele>217</ele>
        <time>2021-03-14T17:17:32Z</time>
      </trkpt>
      <trkpt lat="45.86184" lon="5.3424">
        <ele>219</ele>
        <time>2021-03-14T17:17:56Z</time>
      </trkpt>
      <trkpt lat="45.8607" lon="5.34216">
        <ele>219</ele>
        <time>2021-03-14T17:18:16Z</time>
      </trkpt>
      <trkpt lat="45.86022" lon="5.34209">
        <ele>220</ele>
        <time>2021-03-14T17:18:25Z</time>
      </trkpt>
      <trkpt lat="45.85951" lon="5.3418">
        <ele>220</ele>
        <time>2021-03-14T17:18:38Z</time>
      </trkpt>
      <trkpt lat="45.85911" lon="5.34172">
        <ele>222</ele>
        <time>2021-03-14T17:18:45Z</time>
      </trkpt>
      <trkpt lat="45.85798" lon="5.34161">
        <ele>229</ele>
        <time>2021-03-14T17:19:05Z</time>
      </trkpt>
      <trkpt lat="45.85737" lon="5.3415">
        <ele>235</ele>
        <time>2021-03-14T17:19:16Z</time>
      </trkpt>
      <trkpt lat="45.85689" lon="5.34087">
        <ele>231</ele>
        <time>2021-03-14T17:19:28Z</time>
      </trkpt>
      <trkpt lat="45.85651" lon="5.34055">
        <ele>231</ele>
        <time>2021-03-14T17:19:36Z</time>
      </trkpt>
      <trkpt lat="45.85594" lon="5.34027">
        <ele>230</ele>
        <time>2021-03-14T17:19:46Z</time>
      </trkpt>
      <trkpt lat="45.85416" lon="5.34007">
        <ele>228</ele>
        <time>2021-03-14T17:20:18Z</time>
      </trkpt>
      <trkpt lat="45.85367" lon="5.33954">
        <ele>231</ele>
        <time>2021-03-14T17:20:29Z</time>
      </trkpt>
      <trkpt lat="45.85326" lon="5.33818">
        <ele>217</ele>
        <time>2021-03-14T17:20:47Z</time>
      </trkpt>
      <trkpt lat="45.85223" lon="5.33729">
        <ele>217</ele>
        <time>2021-03-14T17:21:09Z</time>
      </trkpt>
      <trkpt lat="45.85181" lon="5.33653">
        <ele>217</ele>
        <time>2021-03-14T17:21:21Z</time>
      </trkpt>
      <trkpt lat="45.85124" lon="5.33663">
        <ele>219</ele>
        <time>2021-03-14T17:21:31Z</time>
      </trkpt>
      <trkpt lat="45.85058" lon="5.33644">
        <ele>221</ele>
        <time>2021-03-14T17:21:43Z</time>
      </trkpt>
      <trkpt lat="45.84943" lon="5.33592">
        <ele>219</ele>
        <time>2021-03-14T17:22:04Z</time>
      </trkpt>
      <trkpt lat="45.84888" lon="5.33547">
        <ele>219</ele>
        <time>2021-03-14T17:22:16Z</time>
      </trkpt>
      <trkpt lat="45.84836" lon="5.33456">
        <ele>216</ele>
        <time>2021-03-14T17:22:30Z</time>
      </trkpt>
      <trkpt lat="45.84688" lon="5.33311">
        <ele>217</ele>
        <time>2021-03-14T17:23:02Z</time>
      </trkpt>
      <trkpt lat="45.846" lon="5.33231">
        <ele>214</ele>
        <time>2021-03-14T17:23:21Z</time>
      </trkpt>
      <trkpt lat="45.84496" lon="5.33117">
        <ele>214</ele>
        <time>2021-03-14T17:23:44Z</time>
      </trkpt>
      <trkpt lat="45.84418" lon="5.33044">
        <ele>214</ele>
        <time>2021-03-14T17:24:01Z</time>
      </trkpt>
      <trkpt lat="45.84338" lon="5.32952">
        <ele>217</ele>
        <time>2021-03-14T17:24:19Z</time>
      </trkpt>
      <trkpt lat="45.84285" lon="5.32876">
        <ele>217</ele>
        <time>2021-03-14T17:24:32Z</time>
      </trkpt>
      <trkpt lat="45.84232" lon="5.32838">
        <ele>218</ele>
        <time>2021-03-14T17:24:43Z</time>
      </trkpt>
      <trkpt lat="45.84219" lon="5.32804">
        <ele>216</ele>
        <time>2021-03-14T17:24:47Z</time>
      </trkpt>
      <trkpt lat="45.84173" lon="5.32789">
        <ele>215</ele>
        <time>2021-03-14T17:24:56Z</time>
      </trkpt>
      <trkpt lat="45.84122" lon="5.32791">
        <ele>217</ele>
        <time>2021-03-14T17:25:05Z</time>
      </trkpt>
      <trkpt lat="45.84076" lon="5.32804">
        <ele>218</ele>
        <time>2021-03-14T17:25:13Z</time>
      </trkpt>
      <trkpt lat="45.84031" lon="5.32842">
        <ele>219</ele>
        <time>2021-03-14T17:25:23Z</time>
      </trkpt>
      <trkpt lat="45.83983" lon="5.32895">
        <ele>222</ele>
        <time>2021-03-14T17:25:33Z</time>
      </trkpt>
      <trkpt lat="45.83926" lon="5.32929">
        <ele>226</ele>
        <time>2021-03-14T17:25:44Z</time>
      </trkpt>
      <trkpt lat="45.83872" lon="5.32916">
        <ele>228</ele>
        <time>2021-03-14T17:25:54Z</time>
      </trkpt>
      <trkpt lat="45.83816" lon="5.32891">
        <ele>230</ele>
        <time>2021-03-14T17:26:04Z</time>
      </trkpt>
      <trkpt lat="45.83751" lon="5.32874">
        <ele>234</ele>
        <time>2021-03-14T17:26:16Z</time>
      </trkpt>
      <trkpt lat="45.83705" lon="5.32849">
        <ele>233</ele>
        <time>2021-03-14T17:26:25Z</time>
      </trkpt>
      <trkpt lat="45.83611" lon="5.32784">
        <ele>227</ele>
        <time>2021-03-14T17:26:44Z</time>
      </trkpt>
      <trkpt lat="45.83559" lon="5.32753">
        <ele>227</ele>
        <time>2021-03-14T17:26:54Z</time>
      </trkpt>
      <trkpt lat="45.83518" lon="5.32713">
        <ele>227</ele>
        <time>2021-03-14T17:27:02Z</time>
      </trkpt>
      <trkpt lat="45.83463" lon="5.32637">
        <ele>222</ele>
        <time>2021-03-14T17:27:16Z</time>
      </trkpt>
      <trkpt lat="45.83447" lon="5.32596">
        <ele>220</ele>
        <time>2021-03-14T17:27:22Z</time>
      </trkpt>
      <trkpt lat="45.83444" lon="5.32563">
        <ele>218</ele>
        <time>2021-03-14T17:27:26Z</time>
      </trkpt>
      <trkpt lat="45.83474" lon="5.32506">
        <ele>217</ele>
        <time>2021-03-14T17:27:35Z</time>
      </trkpt>
      <trkpt lat="45.83545" lon="5.32225">
        <ele>212</ele>
        <time>2021-03-14T17:28:12Z</time>
      </trkpt>
      <trkpt lat="45.83568" lon="5.32151">
        <ele>212</ele>
        <time>2021-03-14T17:28:22Z</time>
      </trkpt>
      <trkpt lat="45.83606" lon="5.31999">
        <ele>211</ele>
        <time>2021-03-14T17:28:42Z</time>
      </trkpt>
      <trkpt lat="45.83628" lon="5.31935">
        <ele>211</ele>
        <time>2021-03-14T17:28:51Z</time>
      </trkpt>
      <trkpt lat="45.83635" lon="5.31872">
        <ele>209</ele>
        <time>2021-03-14T17:28:59Z</time>
      </trkpt>
      <trkpt lat="45.83613" lon="5.318">
        <ele>208</ele>
        <time>2021-03-14T17:29:08Z</time>
      </trkpt>
      <trkpt lat="45.83607" lon="5.3173">
        <ele>207</ele>
        <time>2021-03-14T17:29:17Z</time>
      </trkpt>
      <trkpt lat="45.83635" lon="5.31479">
        <ele>202</ele>
        <time>2021-03-14T17:29:49Z</time>
      </trkpt>
      <trkpt lat="45.83637" lon="5.31267">
        <ele>204</ele>
        <time>2021-03-14T17:30:15Z</time>
      </trkpt>
      <trkpt lat="45.83645" lon="5.31187">
        <ele>204</ele>
        <time>2021-03-14T17:30:25Z</time>
      </trkpt>
      <trkpt lat="45.83674" lon="5.31025">
        <ele>203</ele>
        <time>2021-03-14T17:30:46Z</time>
      </trkpt>
      <trkpt lat="45.83486" lon="5.30866">
        <ele>200</ele>
        <time>2021-03-14T17:31:25Z</time>
      </trkpt>
      <trkpt lat="45.83395" lon="5.3076">
        <ele>201</ele>
        <time>2021-03-14T17:31:45Z</time>
      </trkpt>
      <trkpt lat="45.8335" lon="5.30728">
        <ele>201</ele>
        <time>2021-03-14T17:31:54Z</time>
      </trkpt>
      <trkpt lat="45.83325" lon="5.30608">
        <ele>202</ele>
        <time>2021-03-14T17:32:10Z</time>
      </trkpt>
      <trkpt lat="45.83272" lon="5.30549">
        <ele>202</ele>
        <time>2021-03-14T17:32:22Z</time>
      </trkpt>
      <trkpt lat="45.83169" lon="5.30455">
        <ele>201</ele>
        <time>2021-03-14T17:32:44Z</time>
      </trkpt>
      <trkpt lat="45.83123" lon="5.30405">
        <ele>200</ele>
        <time>2021-03-14T17:32:54Z</time>
      </trkpt>
      <trkpt lat="45.83024" lon="5.30322">
        <ele>200</ele>
        <time>2021-03-14T17:33:14Z</time>
      </trkpt>
      <trkpt lat="45.82989" lon="5.30264">
        <ele>201</ele>
        <time>2021-03-14T17:33:24Z</time>
      </trkpt>
      <trkpt lat="45.8291" lon="5.30169">
        <ele>202</ele>
        <time>2021-03-14T17:33:42Z</time>
      </trkpt>
      <trkpt lat="45.82867" lon="5.30142">
        <ele>201</ele>
        <time>2021-03-14T17:33:50Z</time>
      </trkpt>
      <trkpt lat="45.82826" lon="5.30102">
        <ele>201</ele>
        <time>2021-03-14T17:33:59Z</time>
      </trkpt>
      <trkpt lat="45.82784" lon="5.30072">
        <ele>200</ele>
        <time>2021-03-14T17:34:08Z</time>
      </trkpt>
      <trkpt lat="45.82704" lon="5.30025">
        <ele>199</ele>
        <time>2021-03-14T17:34:23Z</time>
      </trkpt>
      <trkpt lat="45.82659" lon="5.29994">
        <ele>199</ele>
        <time>2021-03-14T17:34:32Z</time>
      </trkpt>
      <trkpt lat="45.8262" lon="5.29959">
        <ele>199</ele>
        <time>2021-03-14T17:34:40Z</time>
      </trkpt>
      <trkpt lat="45.82642" lon="5.29865">
        <ele>200</ele>
        <time>2021-03-14T17:34:52Z</time>
      </trkpt>
      <trkpt lat="45.82641" lon="5.29822">
        <ele>200</ele>
        <time>2021-03-14T17:34:58Z</time>
      </trkpt>
      <trkpt lat="45.82584" lon="5.29793">
        <ele>197</ele>
        <time>2021-03-14T17:35:08Z</time>
      </trkpt>
      <trkpt lat="45.82495" lon="5.29777">
        <ele>196</ele>
        <time>2021-03-14T17:35:24Z</time>
      </trkpt>
      <trkpt lat="45.82438" lon="5.2982">
        <ele>197</ele>
        <time>2021-03-14T17:35:36Z</time>
      </trkpt>
      <trkpt lat="45.82376" lon="5.29836">
        <ele>198</ele>
        <time>2021-03-14T17:35:47Z</time>
      </trkpt>
      <trkpt lat="45.82279" lon="5.2975">
        <ele>197</ele>
        <time>2021-03-14T17:36:07Z</time>
      </trkpt>
      <trkpt lat="45.82214" lon="5.29684">
        <ele>196</ele>
        <time>2021-03-14T17:36:21Z</time>
      </trkpt>
      <trkpt lat="45.8212" lon="5.29719">
        <ele>198</ele>
        <time>2021-03-14T17:36:39Z</time>
      </trkpt>
      <trkpt lat="45.82042" lon="5.29773">
        <ele>201</ele>
        <time>2021-03-14T17:36:54Z</time>
      </trkpt>
      <trkpt lat="45.8195" lon="5.2977">
        <ele>202</ele>
        <time>2021-03-14T17:37:11Z</time>
      </trkpt>
      <trkpt lat="45.81858" lon="5.29785">
        <ele>205</ele>
        <time>2021-03-14T17:37:27Z</time>
      </trkpt>
      <trkpt lat="45.81777" lon="5.29785">
        <ele>210</ele>
        <time>2021-03-14T17:37:41Z</time>
      </trkpt>
      <trkpt lat="45.81726" lon="5.29731">
        <ele>210</ele>
        <time>2021-03-14T17:37:53Z</time>
      </trkpt>
      <trkpt lat="45.81672" lon="5.29704">
        <ele>209</ele>
        <time>2021-03-14T17:38:03Z</time>
      </trkpt>
      <trkpt lat="45.81591" lon="5.29673">
        <ele>212</ele>
        <time>2021-03-14T17:38:18Z</time>
      </trkpt>
      <trkpt lat="45.81516" lon="5.29585">
        <ele>211</ele>
        <time>2021-03-14T17:38:35Z</time>
      </trkpt>
      <trkpt lat="45.8148" lon="5.29553">
        <ele>209</ele>
        <time>2021-03-14T17:38:43Z</time>
      </trkpt>
      <trkpt lat="45.81442" lon="5.29528">
        <ele>209</ele>
        <time>2021-03-14T17:38:50Z</time>
      </trkpt>
      <trkpt lat="45.81411" lon="5.29549">
        <ele>211</ele>
        <time>2021-03-14T17:38:56Z</time>
      </trkpt>
      <trkpt lat="45.81305" lon="5.29821">
        <ele>212</ele>
        <time>2021-03-14T17:39:35Z</time>
      </trkpt>
      <trkpt lat="45.81269" lon="5.29854">
        <ele>212</ele>
        <time>2021-03-14T17:39:42Z</time>
      </trkpt>
      <trkpt lat="45.81256" lon="5.29855">
        <ele>212</ele>
        <time>2021-03-14T17:39:45Z</time>
      </trkpt>
      <trkpt lat="45.81156" lon="5.29739">
        <ele>213</ele>
        <time>2021-03-14T17:40:08Z</time>
      </trkpt>
      <trkpt lat="45.81051" lon="5.29607">
        <ele>213</ele>
        <time>2021-03-14T17:40:32Z</time>
      </trkpt>
      <trkpt lat="45.80972" lon="5.29487">
        <ele>213</ele>
        <time>2021-03-14T17:40:53Z</time>
      </trkpt>
      <trkpt lat="45.80889" lon="5.29386">
        <ele>212</ele>
        <time>2021-03-14T17:41:12Z</time>
      </trkpt>
      <trkpt lat="45.80702" lon="5.29146">
        <ele>212</ele>
        <time>2021-03-14T17:41:57Z</time>
      </trkpt>
      <trkpt lat="45.80492" lon="5.28867">
        <ele>209</ele>
        <time>2021-03-14T17:42:48Z</time>
      </trkpt>
      <trkpt lat="45.80422" lon="5.28747">
        <ele>208</ele>
        <time>2021-03-14T17:43:07Z</time>
      </trkpt>
      <trkpt lat="45.80343" lon="5.28677">
        <ele>206</ele>
        <time>2021-03-14T17:43:24Z</time>
      </trkpt>
      <trkpt lat="45.802" lon="5.28495">
        <ele>204</ele>
        <time>2021-03-14T17:43:58Z</time>
      </trkpt>
      <trkpt lat="45.80125" lon="5.28418">
        <ele>202</ele>
        <time>2021-03-14T17:44:14Z</time>
      </trkpt>
      <trkpt lat="45.80068" lon="5.28325">
        <ele>199</ele>
        <time>2021-03-14T17:44:29Z</time>
      </trkpt>
      <trkpt lat="45.80019" lon="5.28212">
        <ele>203</ele>
        <time>2021-03-14T17:44:46Z</time>
      </trkpt>
      <trkpt lat="45.7996" lon="5.28085">
        <ele>210</ele>
        <time>2021-03-14T17:45:05Z</time>
      </trkpt>
      <trkpt lat="45.79909" lon="5.28007">
        <ele>210</ele>
        <time>2021-03-14T17:45:18Z</time>
      </trkpt>
      <trkpt lat="45.79857" lon="5.27918">
        <ele>210</ele>
        <time>2021-03-14T17:45:33Z</time>
      </trkpt>
      <trkpt lat="45.79795" lon="5.27872">
        <ele>212</ele>
        <time>2021-03-14T17:45:45Z</time>
      </trkpt>
      <trkpt lat="45.79687" lon="5.27837">
        <ele>215</ele>
        <time>2021-03-14T17:46:05Z</time>
      </trkpt>
      <trkpt lat="45.79425" lon="5.27666">
        <ele>212</ele>
        <time>2021-03-14T17:46:56Z</time>
      </trkpt>
      <trkpt lat="45.7919" lon="5.27577">
        <ele>205</ele>
        <time>2021-03-14T17:47:39Z</time>
      </trkpt>
      <trkpt lat="45.79131" lon="5.27546">
        <ele>205</ele>
        <time>2021-03-14T17:47:50Z</time>
      </trkpt>
      <trkpt lat="45.79052" lon="5.2743">
        <ele>204</ele>
        <time>2021-03-14T17:48:10Z</time>
      </trkpt>
      <trkpt lat="45.78971" lon="5.27291">
        <ele>205</ele>
        <time>2021-03-14T17:48:33Z</time>
      </trkpt>
      <trkpt lat="45.78871" lon="5.27155">
        <ele>204</ele>
        <time>2021-03-14T17:48:57Z</time>
      </trkpt>
      <trkpt lat="45.78785" lon="5.27">
        <ele>202</ele>
        <time>2021-03-14T17:49:22Z</time>
      </trkpt>
      <trkpt lat="45.78676" lon="5.26886">
        <ele>204</ele>
        <time>2021-03-14T17:49:46Z</time>
      </trkpt>
      <trkpt lat="45.78558" lon="5.2681">
        <ele>206</ele>
        <time>2021-03-14T17:50:09Z</time>
      </trkpt>
      <trkpt lat="45.7842" lon="5.2671">
        <ele>207</ele>
        <time>2021-03-14T17:50:37Z</time>
      </trkpt>
      <trkpt lat="45.78296" lon="5.26613">
        <ele>204</ele>
        <time>2021-03-14T17:51:02Z</time>
      </trkpt>
      <trkpt lat="45.78166" lon="5.26516">
        <ele>205</ele>
        <time>2021-03-14T17:51:28Z</time>
      </trkpt>
      <trkpt lat="45.77707" lon="5.26183">
        <ele>206</ele>
        <time>2021-03-14T17:52:59Z</time>
      </trkpt>
      <trkpt lat="45.77575" lon="5.26078">
        <ele>206</ele>
        <time>2021-03-14T17:53:26Z</time>
      </trkpt>
      <trkpt lat="45.77426" lon="5.25974">
        <ele>205</ele>
        <time>2021-03-14T17:53:56Z</time>
      </trkpt>
      <trkpt lat="45.77299" lon="5.25881">
        <ele>205</ele>
        <time>2021-03-14T17:54:21Z</time>
      </trkpt>
      <trkpt lat="45.77178" lon="5.25788">
        <ele>206</ele>
        <time>2021-03-14T17:54:45Z</time>
      </trkpt>
      <trkpt lat="45.771" lon="5.25722">
        <ele>205</ele>
        <time>2021-03-14T17:55:02Z</time>
      </trkpt>
      <trkpt lat="45.7707" lon="5.25621">
        <ele>205</ele>
        <time>2021-03-14T17:55:15Z</time>
      </trkpt>
      <trkpt lat="45.77021" lon="5.25486">
        <ele>204</ele>
        <time>2021-03-14T17:55:34Z</time>
      </trkpt>
      <trkpt lat="45.7698" lon="5.2535">
        <ele>204</ele>
        <time>2021-03-14T17:55:52Z</time>
      </trkpt>
      <trkpt lat="45.76856" lon="5.25156">
        <ele>204</ele>
        <time>2021-03-14T17:56:25Z</time>
      </trkpt>
      <trkpt lat="45.76816" lon="5.25032">
        <ele>203</ele>
        <time>2021-03-14T17:56:42Z</time>
      </trkpt>
      <trkpt lat="45.76783" lon="5.24877">
        <ele>203</ele>
        <time>2021-03-14T17:57:02Z</time>
      </trkpt>
      <trkpt lat="45.76735" lon="5.24773">
        <ele>203</ele>
        <time>2021-03-14T17:57:18Z</time>
      </trkpt>
      <trkpt lat="45.7668" lon="5.24668">
        <ele>202</ele>
        <time>2021-03-14T17:57:34Z</time>
      </trkpt>
      <trkpt lat="45.76643" lon="5.24552">
        <ele>201</ele>
        <time>2021-03-14T17:57:50Z</time>
      </trkpt>
      <trkpt lat="45.76629" lon="5.24382">
        <ele>201</ele>
        <time>2021-03-14T17:58:11Z</time>
      </trkpt>
      <trkpt lat="45.76599" lon="5.24215">
        <ele>200</ele>
        <time>2021-03-14T17:58:32Z</time>
      </trkpt>
      <trkpt lat="45.76542" lon="5.24035">
        <ele>201</ele>
        <time>2021-03-14T17:58:57Z</time>
      </trkpt>
      <trkpt lat="45.7644" lon="5.23762">
        <ele>201</ele>
        <time>2021-03-14T17:59:35Z</time>
      </trkpt>
      <trkpt lat="45.76394" lon="5.23618">
        <ele>200</ele>
        <time>2021-03-14T17:59:55Z</time>
      </trkpt>
      <trkpt lat="45.7634" lon="5.23479">
        <ele>200</ele>
        <time>2021-03-14T18:00:15Z</time>
      </trkpt>
      <trkpt lat="45.76278" lon="5.23324">
        <ele>199</ele>
        <time>2021-03-14T18:00:37Z</time>
      </trkpt>
      <trkpt lat="45.76213" lon="5.23173">
        <ele>200</ele>
        <time>2021-03-14T18:00:59Z</time>
      </trkpt>
      <trkpt lat="45.7614" lon="5.23022">
        <ele>199</ele>
        <time>2021-03-14T18:01:22Z</time>
      </trkpt>
      <trkpt lat="45.76075" lon="5.22867">
        <ele>201</ele>
        <time>2021-03-14T18:01:44Z</time>
      </trkpt>
      <trkpt lat="45.76018" lon="5.22743">
        <ele>202</ele>
        <time>2021-03-14T18:02:03Z</time>
      </trkpt>
      <trkpt lat="45.75862" lon="5.22557">
        <ele>205</ele>
        <time>2021-03-14T18:02:39Z</time>
      </trkpt>
      <trkpt lat="45.75802" lon="5.22445">
        <ele>205</ele>
        <time>2021-03-14T18:02:56Z</time>
      </trkpt>
      <trkpt lat="45.75751" lon="5.22325">
        <ele>204</ele>
        <time>2021-03-14T18:03:14Z</time>
      </trkpt>
      <trkpt lat="45.75724" lon="5.22234">
        <ele>204</ele>
        <time>2021-03-14T18:03:26Z</time>
      </trkpt>
      <trkpt lat="45.75679" lon="5.22268">
        <ele>204</ele>
        <time>2021-03-14T18:03:35Z</time>
      </trkpt>
      <trkpt lat="45.75589" lon="5.22307">
        <ele>205</ele>
        <time>2021-03-14T18:03:52Z</time>
      </trkpt>
      <trkpt lat="45.75536" lon="5.22325">
        <ele>205</ele>
        <time>2021-03-14T18:04:02Z</time>
      </trkpt>
      <trkpt lat="45.75487" lon="5.22354">
        <ele>207</ele>
        <time>2021-03-14T18:04:11Z</time>
      </trkpt>
      <trkpt lat="45.7544" lon="5.22387">
        <ele>210</ele>
        <time>2021-03-14T18:04:20Z</time>
      </trkpt>
      <trkpt lat="45.75351" lon="5.22444">
        <ele>215</ele>
        <time>2021-03-14T18:04:38Z</time>
      </trkpt>
      <trkpt lat="45.75319" lon="5.22494">
        <ele>217</ele>
        <time>2021-03-14T18:04:46Z</time>
      </trkpt>
      <trkpt lat="45.75283" lon="5.22561">
        <ele>217</ele>
        <time>2021-03-14T18:04:57Z</time>
      </trkpt>
      <trkpt lat="45.75264" lon="5.22634">
        <ele>216</ele>
        <time>2021-03-14T18:05:06Z</time>
      </trkpt>
      <trkpt lat="45.75243" lon="5.22701">
        <ele>213</ele>
        <time>2021-03-14T18:05:15Z</time>
      </trkpt>
      <trkpt lat="45.75219" lon="5.22753">
        <ele>211</ele>
        <time>2021-03-14T18:05:23Z</time>
      </trkpt>
      <trkpt lat="45.75201" lon="5.22805">
        <ele>208</ele>
        <time>2021-03-14T18:05:30Z</time>
      </trkpt>
      <trkpt lat="45.75205" lon="5.2286">
        <ele>207</ele>
        <time>2021-03-14T18:05:37Z</time>
      </trkpt>
      <trkpt lat="45.75205" lon="5.22919">
        <ele>206</ele>
        <time>2021-03-14T18:05:45Z</time>
      </trkpt>
      <trkpt lat="45.75161" lon="5.22966">
        <ele>205</ele>
        <time>2021-03-14T18:05:54Z</time>
      </trkpt>
      <trkpt lat="45.75112" lon="5.22984">
        <ele>206</ele>
        <time>2021-03-14T18:06:03Z</time>
      </trkpt>
      <trkpt lat="45.75071" lon="5.23008">
        <ele>206</ele>
        <time>2021-03-14T18:06:11Z</time>
      </trkpt>
      <trkpt lat="45.75009" lon="5.23031">
        <ele>204</ele>
        <time>2021-03-14T18:06:23Z</time>
      </trkpt>
      <trkpt lat="45.7496" lon="5.22982">
        <ele>203</ele>
        <time>2021-03-14T18:06:33Z</time>
      </trkpt>
      <trkpt lat="45.74938" lon="5.22935">
        <ele>203</ele>
        <time>2021-03-14T18:06:40Z</time>
      </trkpt>
      <trkpt lat="45.74915" lon="5.22873">
        <ele>205</ele>
        <time>2021-03-14T18:06:49Z</time>
      </trkpt>
      <trkpt lat="45.74893" lon="5.22826">
        <ele>206</ele>
        <time>2021-03-14T18:06:56Z</time>
      </trkpt>
      <trkpt lat="45.74859" lon="5.22779">
        <ele>205</ele>
        <time>2021-03-14T18:07:04Z</time>
      </trkpt>
      <trkpt lat="45.74848" lon="5.22725">
        <ele>205</ele>
        <time>2021-03-14T18:07:11Z</time>
      </trkpt>
      <trkpt lat="45.74768" lon="5.22608">
        <ele>205</ele>
        <time>2021-03-14T18:07:32Z</time>
      </trkpt>
      <trkpt lat="45.74736" lon="5.22553">
        <ele>205</ele>
        <time>2021-03-14T18:07:41Z</time>
      </trkpt>
      <trkpt lat="45.74705" lon="5.22483">
        <ele>205</ele>
        <time>2021-03-14T18:07:51Z</time>
      </trkpt>
      <trkpt lat="45.74669" lon="5.22447">
        <ele>206</ele>
        <time>2021-03-14T18:07:59Z</time>
      </trkpt>
      <trkpt lat="45.74643" lon="5.22395">
        <ele>206</ele>
        <time>2021-03-14T18:08:07Z</time>
      </trkpt>
      <trkpt lat="45.74589" lon="5.22356">
        <ele>205</ele>
        <time>2021-03-14T18:08:17Z</time>
      </trkpt>
      <trkpt lat="45.74526" lon="5.22286">
        <ele>205</ele>
        <time>2021-03-14T18:08:32Z</time>
      </trkpt>
      <trkpt lat="45.7446" lon="5.22219">
        <ele>204</ele>
        <time>2021-03-14T18:08:46Z</time>
      </trkpt>
      <trkpt lat="45.74368" lon="5.2213">
        <ele>206</ele>
        <time>2021-03-14T18:09:06Z</time>
      </trkpt>
      <trkpt lat="45.74299" lon="5.22068">
        <ele>206</ele>
        <time>2021-03-14T18:09:20Z</time>
      </trkpt>
      <trkpt lat="45.74207" lon="5.21962">
        <ele>206</ele>
        <time>2021-03-14T18:09:41Z</time>
      </trkpt>
      <trkpt lat="45.74183" lon="5.2191">
        <ele>207</ele>
        <time>2021-03-14T18:09:49Z</time>
      </trkpt>
      <trkpt lat="45.7416" lon="5.21874">
        <ele>206</ele>
        <time>2021-03-14T18:09:55Z</time>
      </trkpt>
      <trkpt lat="45.74123" lon="5.21832">
        <ele>207</ele>
        <time>2021-03-14T18:10:03Z</time>
      </trkpt>
      <trkpt lat="45.74084" lon="5.21796">
        <ele>209</ele>
        <time>2021-03-14T18:10:12Z</time>
      </trkpt>
      <trkpt lat="45.74053" lon="5.21759">
        <ele>211</ele>
        <time>2021-03-14T18:10:19Z</time>
      </trkpt>
      <trkpt lat="45.74026" lon="5.21715">
        <ele>213</ele>
        <time>2021-03-14T18:10:26Z</time>
      </trkpt>
      <trkpt lat="45.73979" lon="5.21609">
        <ele>214</ele>
        <time>2021-03-14T18:10:42Z</time>
      </trkpt>
      <trkpt lat="45.73855" lon="5.21539">
        <ele>216</ele>
        <time>2021-03-14T18:11:05Z</time>
      </trkpt>
      <trkpt lat="45.73828" lon="5.21539">
        <ele>217</ele>
        <time>2021-03-14T18:11:10Z</time>
      </trkpt>
      <trkpt lat="45.73792" lon="5.21523">
        <ele>217</ele>
        <time>2021-03-14T18:11:17Z</time>
      </trkpt>
      <trkpt lat="45.73765" lon="5.21502">
        <ele>218</ele>
        <time>2021-03-14T18:11:22Z</time>
      </trkpt>
      <trkpt lat="45.73747" lon="5.21463">
        <ele>217</ele>
        <time>2021-03-14T18:11:28Z</time>
      </trkpt>
      <trkpt lat="45.73768" lon="5.21367">
        <ele>215</ele>
        <time>2021-03-14T18:11:41Z</time>
      </trkpt>
      <trkpt lat="45.73788" lon="5.21256">
        <ele>213</ele>
        <time>2021-03-14T18:11:55Z</time>
      </trkpt>
      <trkpt lat="45.73797" lon="5.21188">
        <ele>212</ele>
        <time>2021-03-14T18:12:04Z</time>
      </trkpt>
      <trkpt lat="45.73739" lon="5.21165">
        <ele>214</ele>
        <time>2021-03-14T18:12:14Z</time>
      </trkpt>
      <trkpt lat="45.73711" lon="5.21144">
        <ele>213</ele>
        <time>2021-03-14T18:12:20Z</time>
      </trkpt>
      <trkpt lat="45.73672" lon="5.211">
        <ele>212</ele>
        <time>2021-03-14T18:12:29Z</time>
      </trkpt>
      <trkpt lat="45.73647" lon="5.21059">
        <ele>211</ele>
        <time>2021-03-14T18:12:35Z</time>
      </trkpt>
      <trkpt lat="45.73586" lon="5.21001">
        <ele>209</ele>
        <time>2021-03-14T18:12:48Z</time>
      </trkpt>
      <trkpt lat="45.73553" lon="5.20942">
        <ele>208</ele>
        <time>2021-03-14T18:12:58Z</time>
      </trkpt>
      <trkpt lat="45.73509" lon="5.209">
        <ele>209</ele>
        <time>2021-03-14T18:13:07Z</time>
      </trkpt>
      <trkpt lat="45.73406" lon="5.20854">
        <ele>213</ele>
        <time>2021-03-14T18:13:26Z</time>
      </trkpt>
      <trkpt lat="45.73316" lon="5.20804">
        <ele>214</ele>
        <time>2021-03-14T18:13:44Z</time>
      </trkpt>
      <trkpt lat="45.73274" lon="5.20778">
        <ele>215</ele>
        <time>2021-03-14T18:13:52Z</time>
      </trkpt>
      <trkpt lat="45.73229" lon="5.20755">
        <ele>217</ele>
        <time>2021-03-14T18:14:00Z</time>
      </trkpt>
      <trkpt lat="45.73145" lon="5.20695">
        <ele>218</ele>
        <time>2021-03-14T18:14:17Z</time>
      </trkpt>
      <trkpt lat="45.73162" lon="5.20648">
        <ele>219</ele>
        <time>2021-03-14T18:14:24Z</time>
      </trkpt>
      <trkpt lat="45.73169" lon="5.20584">
        <ele>219</ele>
        <time>2021-03-14T18:14:32Z</time>
      </trkpt>
      <trkpt lat="45.73182" lon="5.20542">
        <ele>215</ele>
        <time>2021-03-14T18:14:37Z</time>
      </trkpt>
      <trkpt lat="45.73203" lon="5.20498">
        <ele>211</ele>
        <time>2021-03-14T18:14:44Z</time>
      </trkpt>
      <trkpt lat="45.73218" lon="5.20441">
        <ele>209</ele>
        <time>2021-03-14T18:14:52Z</time>
      </trkpt>
      <trkpt lat="45.73227" lon="5.20376">
        <ele>208</ele>
        <time>2021-03-14T18:15:00Z</time>
      </trkpt>
      <trkpt lat="45.73227" lon="5.20337">
        <ele>209</ele>
        <time>2021-03-14T18:15:05Z</time>
      </trkpt>
      <trkpt lat="45.73221" lon="5.20285">
        <ele>208</ele>
        <time>2021-03-14T18:15:11Z</time>
      </trkpt>
      <trkpt lat="45.73225" lon="5.20249">
        <ele>208</ele>
        <time>2021-03-14T18:15:16Z</time>
      </trkpt>
      <trkpt lat="45.7316" lon="5.20184">
        <ele>207</ele>
        <time>2021-03-14T18:15:30Z</time>
      </trkpt>
      <trkpt lat="45.73134" lon="5.20148">
        <ele>207</ele>
        <time>2021-03-14T18:15:36Z</time>
      </trkpt>
      <trkpt lat="45.7312" lon="5.20091">
        <ele>207</ele>
        <time>2021-03-14T18:15:44Z</time>
      </trkpt>
      <trkpt lat="45.73113" lon="5.20049">
        <ele>207</ele>
        <time>2021-03-14T18:15:49Z</time>
      </trkpt>
      <trkpt lat="45.7311" lon="5.19998">
        <ele>207</ele>
        <time>2021-03-14T18:15:55Z</time>
      </trkpt>
      <trkpt lat="45.7312" lon="5.19956">
        <ele>207</ele>
        <time>2021-03-14T18:16:01Z</time>
      </trkpt>
      <trkpt lat="45.7312" lon="5.19885">
        <ele>207</ele>
        <time>2021-03-14T18:16:10Z</time>
      </trkpt>
      <trkpt lat="45.73115" lon="5.19813">
        <ele>207</ele>
        <time>2021-03-14T18:16:19Z</time>
      </trkpt>
      <trkpt lat="45.731" lon="5.19745">
        <ele>207</ele>
        <time>2021-03-14T18:16:28Z</time>
      </trkpt>
      <trkpt lat="45.73091" lon="5.1967">
        <ele>208</ele>
        <time>2021-03-14T18:16:37Z</time>
      </trkpt>
      <trkpt lat="45.7306" lon="5.19535">
        <ele>208</ele>
        <time>2021-03-14T18:16:55Z</time>
      </trkpt>
      <trkpt lat="45.73091" lon="5.19418">
        <ele>209</ele>
        <time>2021-03-14T18:17:10Z</time>
      </trkpt>
      <trkpt lat="45.73111" lon="5.19296">
        <ele>209</ele>
        <time>2021-03-14T18:17:26Z</time>
      </trkpt>
      <trkpt lat="45.73131" lon="5.19242">
        <ele>208</ele>
        <time>2021-03-14T18:17:33Z</time>
      </trkpt>
      <trkpt lat="45.73159" lon="5.19197">
        <ele>208</ele>
        <time>2021-03-14T18:17:41Z</time>
      </trkpt>
      <trkpt lat="45.73196" lon="5.19159">
        <ele>209</ele>
        <time>2021-03-14T18:17:49Z</time>
      </trkpt>
      <trkpt lat="45.73249" lon="5.19094">
        <ele>212</ele>
        <time>2021-03-14T18:18:01Z</time>
      </trkpt>
      <trkpt lat="45.73287" lon="5.19011">
        <ele>218</ele>
        <time>2021-03-14T18:18:14Z</time>
      </trkpt>
      <trkpt lat="45.73312" lon="5.18964">
        <ele>221</ele>
        <time>2021-03-14T18:18:21Z</time>
      </trkpt>
      <trkpt lat="45.73345" lon="5.18933">
        <ele>223</ele>
        <time>2021-03-14T18:18:28Z</time>
      </trkpt>
      <trkpt lat="45.73366" lon="5.18852">
        <ele>224</ele>
        <time>2021-03-14T18:18:39Z</time>
      </trkpt>
      <trkpt lat="45.73375" lon="5.18775">
        <ele>222</ele>
        <time>2021-03-14T18:18:49Z</time>
      </trkpt>
      <trkpt lat="45.7337" lon="5.18707">
        <ele>221</ele>
        <time>2021-03-14T18:18:57Z</time>
      </trkpt>
      <trkpt lat="45.73384" lon="5.18619">
        <ele>220</ele>
        <time>2021-03-14T18:19:08Z</time>
      </trkpt>
      <trkpt lat="45.73366" lon="5.1858">
        <ele>219</ele>
        <time>2021-03-14T18:19:14Z</time>
      </trkpt>
      <trkpt lat="45.73357" lon="5.1852">
        <ele>219</ele>
        <time>2021-03-14T18:19:22Z</time>
      </trkpt>
      <trkpt lat="45.7337" lon="5.1845">
        <ele>220</ele>
        <time>2021-03-14T18:19:31Z</time>
      </trkpt>
      <trkpt lat="45.73371" lon="5.18393">
        <ele>220</ele>
        <time>2021-03-14T18:19:38Z</time>
      </trkpt>
      <trkpt lat="45.73325" lon="5.18367">
        <ele>218</ele>
        <time>2021-03-14T18:19:47Z</time>
      </trkpt>
      <trkpt lat="45.73305" lon="5.18282">
        <ele>216</ele>
        <time>2021-03-14T18:19:58Z</time>
      </trkpt>
      <trkpt lat="45.73247" lon="5.18245">
        <ele>212</ele>
        <time>2021-03-14T18:20:09Z</time>
      </trkpt>
      <trkpt lat="45.73207" lon="5.18227">
        <ele>211</ele>
        <time>2021-03-14T18:20:16Z</time>
      </trkpt>
      <trkpt lat="45.7318" lon="5.1818">
        <ele>209</ele>
        <time>2021-03-14T18:20:24Z</time>
      </trkpt>
      <trkpt lat="45.73147" lon="5.18155">
        <ele>208</ele>
        <time>2021-03-14T18:20:31Z</time>
      </trkpt>
      <trkpt lat="45.73089" lon="5.18136">
        <ele>207</ele>
        <time>2021-03-14T18:20:41Z</time>
      </trkpt>
      <trkpt lat="45.73049" lon="5.18097">
        <ele>207</ele>
        <time>2021-03-14T18:20:50Z</time>
      </trkpt>
      <trkpt lat="45.72993" lon="5.18027">
        <ele>208</ele>
        <time>2021-03-14T18:21:03Z</time>
      </trkpt>
      <trkpt lat="45.72962" lon="5.18001">
        <ele>208</ele>
        <time>2021-03-14T18:21:09Z</time>
      </trkpt>
      <trkpt lat="45.7291" lon="5.17975">
        <ele>207</ele>
        <time>2021-03-14T18:21:19Z</time>
      </trkpt>
      <trkpt lat="45.72866" lon="5.17947">
        <ele>208</ele>
        <time>2021-03-14T18:21:28Z</time>
      </trkpt>
      <trkpt lat="45.72812" lon="5.17921">
        <ele>208</ele>
        <time>2021-03-14T18:21:38Z</time>
      </trkpt>
      <trkpt lat="45.72776" lon="5.1789">
        <ele>209</ele>
        <time>2021-03-14T18:21:45Z</time>
      </trkpt>
      <trkpt lat="45.72742" lon="5.17852">
        <ele>210</ele>
        <time>2021-03-14T18:21:53Z</time>
      </trkpt>
      <trkpt lat="45.72721" lon="5.17794">
        <ele>210</ele>
        <time>2021-03-14T18:22:01Z</time>
      </trkpt>
      <trkpt lat="45.72687" lon="5.17739">
        <ele>211</ele>
        <time>2021-03-14T18:22:10Z</time>
      </trkpt>
      <trkpt lat="45.72644" lon="5.17713">
        <ele>211</ele>
        <time>2021-03-14T18:22:19Z</time>
      </trkpt>
      <trkpt lat="45.72598" lon="5.1768">
        <ele>211</ele>
        <time>2021-03-14T18:22:28Z</time>
      </trkpt>
      <trkpt lat="45.72495" lon="5.17586">
        <ele>210</ele>
        <time>2021-03-14T18:22:49Z</time>
      </trkpt>
      <trkpt lat="45.72404" lon="5.17508">
        <ele>211</ele>
        <time>2021-03-14T18:23:08Z</time>
      </trkpt>
      <trkpt lat="45.72342" lon="5.17434">
        <ele>210</ele>
        <time>2021-03-14T18:23:23Z</time>
      </trkpt>
      <trkpt lat="45.7231" lon="5.17386">
        <ele>210</ele>
        <time>2021-03-14T18:23:31Z</time>
      </trkpt>
      <trkpt lat="45.72258" lon="5.17321">
        <ele>209</ele>
        <time>2021-03-14T18:23:43Z</time>
      </trkpt>
      <trkpt lat="45.72186" lon="5.17207">
        <ele>208</ele>
        <time>2021-03-14T18:24:02Z</time>
      </trkpt>
      <trkpt lat="45.72104" lon="5.17041">
        <ele>208</ele>
        <time>2021-03-14T18:24:28Z</time>
      </trkpt>
      <trkpt lat="45.72067" lon="5.16987">
        <ele>208</ele>
        <time>2021-03-14T18:24:37Z</time>
      </trkpt>
      <trkpt lat="45.7202" lon="5.16932">
        <ele>208</ele>
        <time>2021-03-14T18:24:48Z</time>
      </trkpt>
      <trkpt lat="45.71989" lon="5.16904">
        <ele>208</ele>
        <time>2021-03-14T18:24:54Z</time>
      </trkpt>
      <trkpt lat="45.71917" lon="5.16787">
        <ele>206</ele>
        <time>2021-03-14T18:25:14Z</time>
      </trkpt>
      <trkpt lat="45.71872" lon="5.16756">
        <ele>207</ele>
        <time>2021-03-14T18:25:23Z</time>
      </trkpt>
      <trkpt lat="45.71832" lon="5.16719">
        <ele>207</ele>
        <time>2021-03-14T18:25:31Z</time>
      </trkpt>
      <trkpt lat="45.71797" lon="5.16719">
        <ele>207</ele>
        <time>2021-03-14T18:25:37Z</time>
      </trkpt>
      <trkpt lat="45.71738" lon="5.1673">
        <ele>207</ele>
        <time>2021-03-14T18:25:48Z</time>
      </trkpt>
      <trkpt lat="45.71687" lon="5.16743">
        <ele>207</ele>
        <time>2021-03-14T18:25:57Z</time>
      </trkpt>
      <trkpt lat="45.71651" lon="5.16774">
        <ele>207</ele>
        <time>2021-03-14T18:26:05Z</time>
      </trkpt>
      <trkpt lat="45.71613" lon="5.16774">
        <ele>207</ele>
        <time>2021-03-14T18:26:11Z</time>
      </trkpt>
      <trkpt lat="45.71613" lon="5.1674">
        <ele>207</ele>
        <time>2021-03-14T18:26:16Z</time>
      </trkpt>
      <trkpt lat="45.71593" lon="5.16471">
        <ele>207</ele>
        <time>2021-03-14T18:26:49Z</time>
      </trkpt>
      <trkpt lat="45.71569" lon="5.16224">
        <ele>208</ele>
        <time>2021-03-14T18:27:20Z</time>
      </trkpt>
      <trkpt lat="45.7156" lon="5.16099">
        <ele>207</ele>
        <time>2021-03-14T18:27:36Z</time>
      </trkpt>
      <trkpt lat="45.71512" lon="5.15554">
        <ele>207</ele>
        <time>2021-03-14T18:28:44Z</time>
      </trkpt>
      <trkpt lat="45.71513" lon="5.1549">
        <ele>206</ele>
        <time>2021-03-14T18:28:52Z</time>
      </trkpt>
      <trkpt lat="45.71502" lon="5.15428">
        <ele>208</ele>
        <time>2021-03-14T18:29:00Z</time>
      </trkpt>
      <trkpt lat="45.71492" lon="5.15307">
        <ele>209</ele>
        <time>2021-03-14T18:29:15Z</time>
      </trkpt>
      <trkpt lat="45.71483" lon="5.15234">
        <ele>212</ele>
        <time>2021-03-14T18:29:24Z</time>
      </trkpt>
      <trkpt lat="45.71478" lon="5.15219">
        <ele>213</ele>
        <time>2021-03-14T18:29:26Z</time>
      </trkpt>
      <trkpt lat="45.71471" lon="5.15207">
        <ele>214</ele>
        <time>2021-03-14T18:29:28Z</time>
      </trkpt>
      <trkpt lat="45.71463" lon="5.15198">
        <ele>215</ele>
        <time>2021-03-14T18:29:30Z</time>
      </trkpt>
      <trkpt lat="45.71445" lon="5.15188">
        <ele>216</ele>
        <time>2021-03-14T18:29:33Z</time>
      </trkpt>
      <trkpt lat="45.71425" lon="5.15185">
        <ele>217</ele>
        <time>2021-03-14T18:29:37Z</time>
      </trkpt>
      <trkpt lat="45.71336" lon="5.15181">
        <ele>222</ele>
        <time>2021-03-14T18:29:53Z</time>
      </trkpt>
      <trkpt lat="45.71317" lon="5.15179">
        <ele>222</ele>
        <time>2021-03-14T18:29:56Z</time>
      </trkpt>
      <trkpt lat="45.71298" lon="5.15173">
        <ele>223</ele>
        <time>2021-03-14T18:30:00Z</time>
      </trkpt>
      <trkpt lat="45.7129" lon="5.15166">
        <ele>224</ele>
        <time>2021-03-14T18:30:01Z</time>
      </trkpt>
      <trkpt lat="45.71279" lon="5.15145">
        <ele>225</ele>
        <time>2021-03-14T18:30:05Z</time>
      </trkpt>
      <trkpt lat="45.71276" lon="5.15119">
        <ele>226</ele>
        <time>2021-03-14T18:30:08Z</time>
      </trkpt>
      <trkpt lat="45.71281" lon="5.15074">
        <ele>227</ele>
        <time>2021-03-14T18:30:14Z</time>
      </trkpt>
      <trkpt lat="45.7132" lon="5.14816">
        <ele>225</ele>
        <time>2021-03-14T18:30:46Z</time>
      </trkpt>
      <trkpt lat="45.71372" lon="5.14503">
        <ele>225</ele>
        <time>2021-03-14T18:31:26Z</time>
      </trkpt>
      <trkpt lat="45.71389" lon="5.14382">
        <ele>226</ele>
        <time>2021-03-14T18:31:42Z</time>
      </trkpt>
      <trkpt lat="45.71394" lon="5.14283">
        <ele>226</ele>
        <time>2021-03-14T18:31:54Z</time>
      </trkpt>
      <trkpt lat="45.71406" lon="5.13852">
        <ele>225</ele>
        <time>2021-03-14T18:32:48Z</time>
      </trkpt>
      <trkpt lat="45.71409" lon="5.13829">
        <ele>225</ele>
        <time>2021-03-14T18:32:51Z</time>
      </trkpt>
      <trkpt lat="45.71415" lon="5.13808">
        <ele>225</ele>
        <time>2021-03-14T18:32:53Z</time>
      </trkpt>
      <trkpt lat="45.71416" lon="5.13788">
        <ele>226</ele>
        <time>2021-03-14T18:32:56Z</time>
      </trkpt>
      <trkpt lat="45.7141" lon="5.13751">
        <ele>226</ele>
        <time>2021-03-14T18:33:01Z</time>
      </trkpt>
      <trkpt lat="45.7141" lon="5.1369">
        <ele>225</ele>
        <time>2021-03-14T18:33:08Z</time>
      </trkpt>
      <trkpt lat="45.71422" lon="5.13453">
        <ele>224</ele>
        <time>2021-03-14T18:33:38Z</time>
      </trkpt>
      <trkpt lat="45.71419" lon="5.13406">
        <ele>224</ele>
        <time>2021-03-14T18:33:44Z</time>
      </trkpt>
      <trkpt lat="45.71397" lon="5.13219">
        <ele>225</ele>
        <time>2021-03-14T18:34:07Z</time>
      </trkpt>
      <trkpt lat="45.71398" lon="5.13185">
        <ele>225</ele>
        <time>2021-03-14T18:34:11Z</time>
      </trkpt>
      <trkpt lat="45.71395" lon="5.1317">
        <ele>225</ele>
        <time>2021-03-14T18:34:13Z</time>
      </trkpt>
      <trkpt lat="45.71372" lon="5.13147">
        <ele>226</ele>
        <time>2021-03-14T18:34:18Z</time>
      </trkpt>
      <trkpt lat="45.71236" lon="5.12969">
        <ele>230</ele>
        <time>2021-03-14T18:34:51Z</time>
      </trkpt>
      <trkpt lat="45.71231" lon="5.12956">
        <ele>230</ele>
        <time>2021-03-14T18:34:53Z</time>
      </trkpt>
      <trkpt lat="45.71226" lon="5.12912">
        <ele>231</ele>
        <time>2021-03-14T18:34:58Z</time>
      </trkpt>
      <trkpt lat="45.71223" lon="5.12837">
        <ele>233</ele>
        <time>2021-03-14T18:35:08Z</time>
      </trkpt>
      <trkpt lat="45.71226" lon="5.12762">
        <ele>234</ele>
        <time>2021-03-14T18:35:17Z</time>
      </trkpt>
      <trkpt lat="45.71222" lon="5.12749">
        <ele>234</ele>
        <time>2021-03-14T18:35:19Z</time>
      </trkpt>
      <trkpt lat="45.7118" lon="5.12684">
        <ele>237</ele>
        <time>2021-03-14T18:35:30Z</time>
      </trkpt>
      <trkpt lat="45.71164" lon="5.12655">
        <ele>237</ele>
        <time>2021-03-14T18:35:34Z</time>
      </trkpt>
      <trkpt lat="45.71142" lon="5.12596">
        <ele>239</ele>
        <time>2021-03-14T18:35:43Z</time>
      </trkpt>
      <trkpt lat="45.71121" lon="5.12553">
        <ele>240</ele>
        <time>2021-03-14T18:35:49Z</time>
      </trkpt>
      <trkpt lat="45.71103" lon="5.12531">
        <ele>241</ele>
        <time>2021-03-14T18:35:53Z</time>
      </trkpt>
      <trkpt lat="45.71065" lon="5.12505">
        <ele>242</ele>
        <time>2021-03-14T18:36:01Z</time>
      </trkpt>
      <trkpt lat="45.71051" lon="5.12485">
        <ele>242</ele>
        <time>2021-03-14T18:36:05Z</time>
      </trkpt>
      <trkpt lat="45.70987" lon="5.12337">
        <ele>246</ele>
        <time>2021-03-14T18:36:26Z</time>
      </trkpt>
      <trkpt lat="45.70958" lon="5.12234">
        <ele>248</ele>
        <time>2021-03-14T18:36:40Z</time>
      </trkpt>
      <trkpt lat="45.70955" lon="5.12119">
        <ele>254</ele>
        <time>2021-03-14T18:36:54Z</time>
      </trkpt>
      <trkpt lat="45.70949" lon="5.1209">
        <ele>255</ele>
        <time>2021-03-14T18:36:58Z</time>
      </trkpt>
      <trkpt lat="45.70943" lon="5.12075">
        <ele>255</ele>
        <time>2021-03-14T18:37:00Z</time>
      </trkpt>
      <trkpt lat="45.70928" lon="5.12047">
        <ele>256</ele>
        <time>2021-03-14T18:37:05Z</time>
      </trkpt>
      <trkpt lat="45.70908" lon="5.12027">
        <ele>256</ele>
        <time>2021-03-14T18:37:09Z</time>
      </trkpt>
      <trkpt lat="45.70898" lon="5.1202">
        <ele>256</ele>
        <time>2021-03-14T18:37:11Z</time>
      </trkpt>
      <trkpt lat="45.70848" lon="5.11997">
        <ele>256</ele>
        <time>2021-03-14T18:37:20Z</time>
      </trkpt>
      <trkpt lat="45.70779" lon="5.11971">
        <ele>256</ele>
        <time>2021-03-14T18:37:33Z</time>
      </trkpt>
      <trkpt lat="45.70746" lon="5.11966">
        <ele>256</ele>
        <time>2021-03-14T18:37:39Z</time>
      </trkpt>
      <trkpt lat="45.70699" lon="5.11965">
        <ele>257</ele>
        <time>2021-03-14T18:37:47Z</time>
      </trkpt>
      <trkpt lat="45.70679" lon="5.11958">
        <ele>257</ele>
        <time>2021-03-14T18:37:51Z</time>
      </trkpt>
      <trkpt lat="45.70669" lon="5.11951">
        <ele>258</ele>
        <time>2021-03-14T18:37:53Z</time>
      </trkpt>
      <trkpt lat="45.70629" lon="5.11912">
        <ele>257</ele>
        <time>2021-03-14T18:38:01Z</time>
      </trkpt>
      <trkpt lat="45.70572" lon="5.11874">
        <ele>255</ele>
        <time>2021-03-14T18:38:13Z</time>
      </trkpt>
      <trkpt lat="45.70549" lon="5.11856">
        <ele>255</ele>
        <time>2021-03-14T18:38:17Z</time>
      </trkpt>
      <trkpt lat="45.70521" lon="5.11826">
        <ele>254</ele>
        <time>2021-03-14T18:38:23Z</time>
      </trkpt>
      <trkpt lat="45.7051" lon="5.11824">
        <ele>254</ele>
        <time>2021-03-14T18:38:25Z</time>
      </trkpt>
      <trkpt lat="45.70475" lon="5.11855">
        <ele>255</ele>
        <time>2021-03-14T18:38:33Z</time>
      </trkpt>
      <trkpt lat="45.70418" lon="5.11882">
        <ele>255</ele>
        <time>2021-03-14T18:38:43Z</time>
      </trkpt>
      <trkpt lat="45.70407" lon="5.1189">
        <ele>256</ele>
        <time>2021-03-14T18:38:46Z</time>
      </trkpt>
      <trkpt lat="45.70388" lon="5.1191">
        <ele>256</ele>
        <time>2021-03-14T18:38:50Z</time>
      </trkpt>
      <trkpt lat="45.70362" lon="5.11944">
        <ele>256</ele>
        <time>2021-03-14T18:38:56Z</time>
      </trkpt>
      <trkpt lat="45.70325" lon="5.12008">
        <ele>256</ele>
        <time>2021-03-14T18:39:06Z</time>
      </trkpt>
      <trkpt lat="45.70313" lon="5.12036">
        <ele>257</ele>
        <time>2021-03-14T18:39:11Z</time>
      </trkpt>
      <trkpt lat="45.70301" lon="5.12082">
        <ele>257</ele>
        <time>2021-03-14T18:39:17Z</time>
      </trkpt>
      <trkpt lat="45.70293" lon="5.12093">
        <ele>258</ele>
        <time>2021-03-14T18:39:19Z</time>
      </trkpt>
      <trkpt lat="45.70273" lon="5.12098">
        <ele>258</ele>
        <time>2021-03-14T18:39:22Z</time>
      </trkpt>
      <trkpt lat="45.70256" lon="5.12113">
        <ele>259</ele>
        <time>2021-03-14T18:39:26Z</time>
      </trkpt>
      <trkpt lat="45.70247" lon="5.12109">
        <ele>259</ele>
        <time>2021-03-14T18:39:27Z</time>
      </trkpt>
      <trkpt lat="45.70239" lon="5.12084">
        <ele>259</ele>
        <time>2021-03-14T18:39:31Z</time>
      </trkpt>
      <trkpt lat="45.70238" lon="5.12069">
        <ele>259</ele>
        <time>2021-03-14T18:39:33Z</time>
      </trkpt>
      <trkpt lat="45.70242" lon="5.1201">
        <ele>259</ele>
        <time>2021-03-14T18:39:40Z</time>
      </trkpt>
      <trkpt lat="45.70234" lon="5.11855">
        <ele>260</ele>
        <time>2021-03-14T18:39:59Z</time>
      </trkpt>
      <trkpt lat="45.70228" lon="5.11842">
        <ele>260</ele>
        <time>2021-03-14T18:40:01Z</time>
      </trkpt>
      <trkpt lat="45.7021" lon="5.11826">
        <ele>261</ele>
        <time>2021-03-14T18:40:05Z</time>
      </trkpt>
      <trkpt lat="45.70022" lon="5.11709">
        <ele>265</ele>
        <time>2021-03-14T18:40:42Z</time>
      </trkpt>
      <trkpt lat="45.69907" lon="5.11632">
        <ele>266</ele>
        <time>2021-03-14T18:41:04Z</time>
      </trkpt>
      <trkpt lat="45.69863" lon="5.11615">
        <ele>266</ele>
        <time>2021-03-14T18:41:12Z</time>
      </trkpt>
      <trkpt lat="45.69779" lon="5.11599">
        <ele>269</ele>
        <time>2021-03-14T18:41:27Z</time>
      </trkpt>
      <trkpt lat="45.69713" lon="5.11618">
        <ele>270</ele>
        <time>2021-03-14T18:41:39Z</time>
      </trkpt>
      <trkpt lat="45.69692" lon="5.11619">
        <ele>270</ele>
        <time>2021-03-14T18:41:43Z</time>
      </trkpt>
      <trkpt lat="45.69681" lon="5.11617">
        <ele>270</ele>
        <time>2021-03-14T18:41:45Z</time>
      </trkpt>
      <trkpt lat="45.69621" lon="5.11595">
        <ele>270</ele>
        <time>2021-03-14T18:41:56Z</time>
      </trkpt>
      <trkpt lat="45.69567" lon="5.11583">
        <ele>269</ele>
        <time>2021-03-14T18:42:06Z</time>
      </trkpt>
      <trkpt lat="45.69527" lon="5.11579">
        <ele>270</ele>
        <time>2021-03-14T18:42:13Z</time>
      </trkpt>
      <trkpt lat="45.69473" lon="5.11578">
        <ele>271</ele>
        <time>2021-03-14T18:42:23Z</time>
      </trkpt>
      <trkpt lat="45.69411" lon="5.11584">
        <ele>272</ele>
        <time>2021-03-14T18:42:34Z</time>
      </trkpt>
      <trkpt lat="45.69371" lon="5.11594">
        <ele>272</ele>
        <time>2021-03-14T18:42:41Z</time>
      </trkpt>
      <trkpt lat="45.69335" lon="5.11598">
        <ele>273</ele>
        <time>2021-03-14T18:42:47Z</time>
      </trkpt>
      <trkpt lat="45.69213" lon="5.11589">
        <ele>271</ele>
        <time>2021-03-14T18:43:09Z</time>
      </trkpt>
      <trkpt lat="45.69204" lon="5.11584">
        <ele>271</ele>
        <time>2021-03-14T18:43:11Z</time>
      </trkpt>
      <trkpt lat="45.69186" lon="5.11533">
        <ele>272</ele>
        <time>2021-03-14T18:43:18Z</time>
      </trkpt>
      <trkpt lat="45.69179" lon="5.11503">
        <ele>272</ele>
        <time>2021-03-14T18:43:22Z</time>
      </trkpt>
      <trkpt lat="45.69174" lon="5.11422">
        <ele>274</ele>
        <time>2021-03-14T18:43:32Z</time>
      </trkpt>
      <trkpt lat="45.69153" lon="5.11358">
        <ele>275</ele>
        <time>2021-03-14T18:43:41Z</time>
      </trkpt>
      <trkpt lat="45.69129" lon="5.11293">
        <ele>275</ele>
        <time>2021-03-14T18:43:50Z</time>
      </trkpt>
      <trkpt lat="45.69121" lon="5.11278">
        <ele>276</ele>
        <time>2021-03-14T18:43:52Z</time>
      </trkpt>
      <trkpt lat="45.69098" lon="5.11212">
        <ele>277</ele>
        <time>2021-03-14T18:44:01Z</time>
      </trkpt>
      <trkpt lat="45.69081" lon="5.11189">
        <ele>277</ele>
        <time>2021-03-14T18:44:05Z</time>
      </trkpt>
      <trkpt lat="45.69054" lon="5.11161">
        <ele>277</ele>
        <time>2021-03-14T18:44:11Z</time>
      </trkpt>
      <trkpt lat="45.69004" lon="5.11101">
        <ele>279</ele>
        <time>2021-03-14T18:44:23Z</time>
      </trkpt>
      <trkpt lat="45.68986" lon="5.11083">
        <ele>279</ele>
        <time>2021-03-14T18:44:27Z</time>
      </trkpt>
      <trkpt lat="45.68948" lon="5.11054">
        <ele>279</ele>
        <time>2021-03-14T18:44:35Z</time>
      </trkpt>
      <trkpt lat="45.6894" lon="5.11043">
        <ele>279</ele>
        <time>2021-03-14T18:44:37Z</time>
      </trkpt>
      <trkpt lat="45.68934" lon="5.11031">
        <ele>279</ele>
        <time>2021-03-14T18:44:38Z</time>
      </trkpt>
      <trkpt lat="45.68917" lon="5.10971">
        <ele>279</ele>
        <time>2021-03-14T18:44:46Z</time>
      </trkpt>
      <trkpt lat="45.68894" lon="5.10916">
        <ele>279</ele>
        <time>2021-03-14T18:44:54Z</time>
      </trkpt>
      <trkpt lat="45.68868" lon="5.10843">
        <ele>277</ele>
        <time>2021-03-14T18:45:05Z</time>
      </trkpt>
      <trkpt lat="45.68857" lon="5.10829">
        <ele>277</ele>
        <time>2021-03-14T18:45:07Z</time>
      </trkpt>
      <trkpt lat="45.68829" lon="5.10813">
        <ele>277</ele>
        <time>2021-03-14T18:45:13Z</time>
      </trkpt>
      <trkpt lat="45.68816" lon="5.10803">
        <ele>276</ele>
        <time>2021-03-14T18:45:15Z</time>
      </trkpt>
      <trkpt lat="45.68805" lon="5.10789">
        <ele>275</ele>
        <time>2021-03-14T18:45:18Z</time>
      </trkpt>
      <trkpt lat="45.6877" lon="5.10702">
        <ele>273</ele>
        <time>2021-03-14T18:45:30Z</time>
      </trkpt>
      <trkpt lat="45.68685" lon="5.10542">
        <ele>272</ele>
        <time>2021-03-14T18:45:55Z</time>
      </trkpt>
      <trkpt lat="45.68634" lon="5.10432">
        <ele>270</ele>
        <time>2021-03-14T18:46:12Z</time>
      </trkpt>
      <trkpt lat="45.68626" lon="5.10389">
        <ele>270</ele>
        <time>2021-03-14T18:46:17Z</time>
      </trkpt>
      <trkpt lat="45.68606" lon="5.10196">
        <ele>267</ele>
        <time>2021-03-14T18:46:41Z</time>
      </trkpt>
      <trkpt lat="45.68597" lon="5.10081">
        <ele>265</ele>
        <time>2021-03-14T18:46:56Z</time>
      </trkpt>
      <trkpt lat="45.68596" lon="5.10025">
        <ele>264</ele>
        <time>2021-03-14T18:47:03Z</time>
      </trkpt>
      <trkpt lat="45.68608" lon="5.09709">
        <ele>260</ele>
        <time>2021-03-14T18:47:42Z</time>
      </trkpt>
      <trkpt lat="45.68594" lon="5.09535">
        <ele>257</ele>
        <time>2021-03-14T18:48:04Z</time>
      </trkpt>
      <trkpt lat="45.68594" lon="5.09487">
        <ele>257</ele>
        <time>2021-03-14T18:48:10Z</time>
      </trkpt>
      <trkpt lat="45.68613" lon="5.09314">
        <ele>257</ele>
        <time>2021-03-14T18:48:32Z</time>
      </trkpt>
      <trkpt lat="45.68635" lon="5.09225">
        <ele>255</ele>
        <time>2021-03-14T18:48:43Z</time>
      </trkpt>
      <trkpt lat="45.68736" lon="5.08706">
        <ele>252</ele>
        <time>2021-03-14T18:49:50Z</time>
      </trkpt>
      <trkpt lat="45.6874" lon="5.08702">
        <ele>252</ele>
        <time>2021-03-14T18:49:51Z</time>
      </trkpt>
      <trkpt lat="45.6874" lon="5.08682">
        <ele>252</ele>
        <time>2021-03-14T18:49:54Z</time>
      </trkpt>
      <trkpt lat="45.68829" lon="5.08232">
        <ele>251</ele>
        <time>2021-03-14T18:50:52Z</time>
      </trkpt>
      <trkpt lat="45.68873" lon="5.07993">
        <ele>248</ele>
        <time>2021-03-14T18:51:23Z</time>
      </trkpt>
      <trkpt lat="45.68884" lon="5.0792">
        <ele>247</ele>
        <time>2021-03-14T18:51:32Z</time>
      </trkpt>
      <trkpt lat="45.68884" lon="5.07895">
        <ele>247</ele>
        <time>2021-03-14T18:51:35Z</time>
      </trkpt>
      <trkpt lat="45.68875" lon="5.07796">
        <ele>246</ele>
        <time>2021-03-14T18:51:47Z</time>
      </trkpt>
      <trkpt lat="45.68787" lon="5.07055">
        <ele>244</ele>
        <time>2021-03-14T18:53:21Z</time>
      </trkpt>
      <trkpt lat="45.68781" lon="5.06977">
        <ele>244</ele>
        <time>2021-03-14T18:53:31Z</time>
      </trkpt>
      <trkpt lat="45.68774" lon="5.06966">
        <ele>244</ele>
        <time>2021-03-14T18:53:32Z</time>
      </trkpt>
      <trkpt lat="45.68762" lon="5.0696">
        <ele>244</ele>
        <time>2021-03-14T18:53:35Z</time>
      </trkpt>
      <trkpt lat="45.68528" lon="5.06881">
        <ele>244</ele>
        <time>2021-03-14T18:54:17Z</time>
      </trkpt>
      <trkpt lat="45.68466" lon="5.06866">
        <ele>243</ele>
        <time>2021-03-14T18:54:29Z</time>
      </trkpt>
      <trkpt lat="45.68351" lon="5.06848">
        <ele>241</ele>
        <time>2021-03-14T18:54:49Z</time>
      </trkpt>
      <trkpt lat="45.68324" lon="5.06838">
        <ele>240</ele>
        <time>2021-03-14T18:54:54Z</time>
      </trkpt>
      <trkpt lat="45.683" lon="5.06822">
        <ele>241</ele>
        <time>2021-03-14T18:54:59Z</time>
      </trkpt>
      <trkpt lat="45.68286" lon="5.06809">
        <ele>241</ele>
        <time>2021-03-14T18:55:02Z</time>
      </trkpt>
      <trkpt lat="45.68265" lon="5.06774">
        <ele>242</ele>
        <time>2021-03-14T18:55:08Z</time>
      </trkpt>
      <trkpt lat="45.68253" lon="5.06733">
        <ele>242</ele>
        <time>2021-03-14T18:55:13Z</time>
      </trkpt>
      <trkpt lat="45.68249" lon="5.06691">
        <ele>241</ele>
        <time>2021-03-14T18:55:18Z</time>
      </trkpt>
      <trkpt lat="45.6825" lon="5.06669">
        <ele>240</ele>
        <time>2021-03-14T18:55:21Z</time>
      </trkpt>
      <trkpt lat="45.68258" lon="5.06629">
        <ele>239</ele>
        <time>2021-03-14T18:55:26Z</time>
      </trkpt>
      <trkpt lat="45.68316" lon="5.06444">
        <ele>240</ele>
        <time>2021-03-14T18:55:51Z</time>
      </trkpt>
      <trkpt lat="45.68372" lon="5.06218">
        <ele>239</ele>
        <time>2021-03-14T18:56:21Z</time>
      </trkpt>
      <trkpt lat="45.68383" lon="5.06185">
        <ele>239</ele>
        <time>2021-03-14T18:56:26Z</time>
      </trkpt>
      <trkpt lat="45.68403" lon="5.06159">
        <ele>239</ele>
        <time>2021-03-14T18:56:31Z</time>
      </trkpt>
      <trkpt lat="45.68409" lon="5.06142">
        <ele>239</ele>
        <time>2021-03-14T18:56:33Z</time>
      </trkpt>
      <trkpt lat="45.68411" lon="5.06081">
        <ele>238</ele>
        <time>2021-03-14T18:56:41Z</time>
      </trkpt>
      <trkpt lat="45.68414" lon="5.06061">
        <ele>238</ele>
        <time>2021-03-14T18:56:43Z</time>
      </trkpt>
      <trkpt lat="45.68439" lon="5.05948">
        <ele>238</ele>
        <time>2021-03-14T18:56:58Z</time>
      </trkpt>
      <trkpt lat="45.68462" lon="5.05873">
        <ele>238</ele>
        <time>2021-03-14T18:57:08Z</time>
      </trkpt>
      <trkpt lat="45.68491" lon="5.05801">
        <ele>238</ele>
        <time>2021-03-14T18:57:18Z</time>
      </trkpt>
      <trkpt lat="45.68519" lon="5.05752">
        <ele>238</ele>
        <time>2021-03-14T18:57:26Z</time>
      </trkpt>
      <trkpt lat="45.68559" lon="5.05692">
        <ele>238</ele>
        <time>2021-03-14T18:57:37Z</time>
      </trkpt>
      <trkpt lat="45.68581" lon="5.05668">
        <ele>237</ele>
        <time>2021-03-14T18:57:41Z</time>
      </trkpt>
      <trkpt lat="45.68591" lon="5.05653">
        <ele>237</ele>
        <time>2021-03-14T18:57:44Z</time>
      </trkpt>
      <trkpt lat="45.68608" lon="5.0562">
        <ele>238</ele>
        <time>2021-03-14T18:57:49Z</time>
      </trkpt>
      <trkpt lat="45.68618" lon="5.05606">
        <ele>239</ele>
        <time>2021-03-14T18:57:52Z</time>
      </trkpt>
      <trkpt lat="45.68632" lon="5.05575">
        <ele>239</ele>
        <time>2021-03-14T18:57:56Z</time>
      </trkpt>
      <trkpt lat="45.68641" lon="5.05562">
        <ele>239</ele>
        <time>2021-03-14T18:57:58Z</time>
      </trkpt>
      <trkpt lat="45.68653" lon="5.05555">
        <ele>239</ele>
        <time>2021-03-14T18:58:01Z</time>
      </trkpt>
      <trkpt lat="45.68664" lon="5.05543">
        <ele>239</ele>
        <time>2021-03-14T18:58:03Z</time>
      </trkpt>
      <trkpt lat="45.6867" lon="5.05527">
        <ele>239</ele>
        <time>2021-03-14T18:58:06Z</time>
      </trkpt>
      <trkpt lat="45.68669" lon="5.05509">
        <ele>239</ele>
        <time>2021-03-14T18:58:08Z</time>
      </trkpt>
      <trkpt lat="45.68655" lon="5.05479">
        <ele>239</ele>
        <time>2021-03-14T18:58:12Z</time>
      </trkpt>
      <trkpt lat="45.68651" lon="5.05463">
        <ele>239</ele>
        <time>2021-03-14T18:58:14Z</time>
      </trkpt>
      <trkpt lat="45.68648" lon="5.05391">
        <ele>239</ele>
        <time>2021-03-14T18:58:23Z</time>
      </trkpt>
      <trkpt lat="45.68634" lon="5.05284">
        <ele>243</ele>
        <time>2021-03-14T18:58:37Z</time>
      </trkpt>
      <trkpt lat="45.68632" lon="5.05215">
        <ele>246</ele>
        <time>2021-03-14T18:58:45Z</time>
      </trkpt>
      <trkpt lat="45.68642" lon="5.05134">
        <ele>248</ele>
        <time>2021-03-14T18:58:56Z</time>
      </trkpt>
      <trkpt lat="45.68716" lon="5.04867">
        <ele>249</ele>
        <time>2021-03-14T18:59:31Z</time>
      </trkpt>
      <trkpt lat="45.68712" lon="5.04853">
        <ele>249</ele>
        <time>2021-03-14T18:59:33Z</time>
      </trkpt>
      <trkpt lat="45.68679" lon="5.04831">
        <ele>249</ele>
        <time>2021-03-14T18:59:40Z</time>
      </trkpt>
      <trkpt lat="45.68671" lon="5.04818">
        <ele>249</ele>
        <time>2021-03-14T18:59:42Z</time>
      </trkpt>
      <trkpt lat="45.68675" lon="5.04801">
        <ele>249</ele>
        <time>2021-03-14T18:59:44Z</time>
      </trkpt>
      <trkpt lat="45.68705" lon="5.04736">
        <ele>251</ele>
        <time>2021-03-14T18:59:54Z</time>
      </trkpt>
      <trkpt lat="45.68722" lon="5.04675">
        <ele>251</ele>
        <time>2021-03-14T19:00:02Z</time>
      </trkpt>
      <trkpt lat="45.68717" lon="5.04659">
        <ele>251</ele>
        <time>2021-03-14T19:00:04Z</time>
      </trkpt>
      <trkpt lat="45.68649" lon="5.04567">
        <ele>251</ele>
        <time>2021-03-14T19:00:21Z</time>
      </trkpt>
      <trkpt lat="45.68643" lon="5.04555">
        <ele>252</ele>
        <time>2021-03-14T19:00:23Z</time>
      </trkpt>
      <trkpt lat="45.68646" lon="5.04541">
        <ele>252</ele>
        <time>2021-03-14T19:00:24Z</time>
      </trkpt>
      <trkpt lat="45.68691" lon="5.04478">
        <ele>251</ele>
        <time>2021-03-14T19:00:36Z</time>
      </trkpt>
      <trkpt lat="45.68691" lon="5.04463">
        <ele>251</ele>
        <time>2021-03-14T19:00:37Z</time>
      </trkpt>
      <trkpt lat="45.68653" lon="5.04418">
        <ele>253</ele>
        <time>2021-03-14T19:00:46Z</time>
      </trkpt>
      <trkpt lat="45.68602" lon="5.04372">
        <ele>257</ele>
        <time>2021-03-14T19:00:57Z</time>
      </trkpt>
      <trkpt lat="45.68591" lon="5.04365">
        <ele>258</ele>
        <time>2021-03-14T19:00:59Z</time>
      </trkpt>
      <trkpt lat="45.68536" lon="5.04347">
        <ele>263</ele>
        <time>2021-03-14T19:01:09Z</time>
      </trkpt>
      <trkpt lat="45.68515" lon="5.04331">
        <ele>264</ele>
        <time>2021-03-14T19:01:13Z</time>
      </trkpt>
      <trkpt lat="45.68464" lon="5.04301">
        <ele>270</ele>
        <time>2021-03-14T19:01:23Z</time>
      </trkpt>
      <trkpt lat="45.68459" lon="5.04288">
        <ele>270</ele>
        <time>2021-03-14T19:01:25Z</time>
      </trkpt>
      <trkpt lat="45.68457" lon="5.04275">
        <ele>270</ele>
        <time>2021-03-14T19:01:27Z</time>
      </trkpt>
      <trkpt lat="45.68464" lon="5.04229">
        <ele>270</ele>
        <time>2021-03-14T19:01:33Z</time>
      </trkpt>
      <trkpt lat="45.68481" lon="5.04142">
        <ele>271</ele>
        <time>2021-03-14T19:01:44Z</time>
      </trkpt>
      <trkpt lat="45.685" lon="5.04063">
        <ele>270</ele>
        <time>2021-03-14T19:01:54Z</time>
      </trkpt>
      <trkpt lat="45.68504" lon="5.04005">
        <ele>270</ele>
        <time>2021-03-14T19:02:01Z</time>
      </trkpt>
      <trkpt lat="45.68503" lon="5.03963">
        <ele>271</ele>
        <time>2021-03-14T19:02:07Z</time>
      </trkpt>
      <trkpt lat="45.68496" lon="5.03936">
        <ele>272</ele>
        <time>2021-03-14T19:02:10Z</time>
      </trkpt>
      <trkpt lat="45.68455" lon="5.03814">
        <ele>275</ele>
        <time>2021-03-14T19:02:27Z</time>
      </trkpt>
      <trkpt lat="45.68416" lon="5.03706">
        <ele>274</ele>
        <time>2021-03-14T19:02:42Z</time>
      </trkpt>
      <trkpt lat="45.68404" lon="5.03662">
        <ele>274</ele>
        <time>2021-03-14T19:02:48Z</time>
      </trkpt>
      <trkpt lat="45.68407" lon="5.03441">
        <ele>280</ele>
        <time>2021-03-14T19:03:16Z</time>
      </trkpt>
      <trkpt lat="45.68404" lon="5.03429">
        <ele>280</ele>
        <time>2021-03-14T19:03:17Z</time>
      </trkpt>
      <trkpt lat="45.68397" lon="5.03418">
        <ele>280</ele>
        <time>2021-03-14T19:03:19Z</time>
      </trkpt>
      <trkpt lat="45.68353" lon="5.0338">
        <ele>280</ele>
        <time>2021-03-14T19:03:28Z</time>
      </trkpt>
      <trkpt lat="45.68348" lon="5.03366">
        <ele>280</ele>
        <time>2021-03-14T19:03:30Z</time>
      </trkpt>
      <trkpt lat="45.68366" lon="5.03293">
        <ele>281</ele>
        <time>2021-03-14T19:03:40Z</time>
      </trkpt>
      <trkpt lat="45.68366" lon="5.03283">
        <ele>281</ele>
        <time>2021-03-14T19:03:41Z</time>
      </trkpt>
      <trkpt lat="45.68379" lon="5.03242">
        <ele>282</ele>
        <time>2021-03-14T19:03:47Z</time>
      </trkpt>
      <trkpt lat="45.68398" lon="5.0316">
        <ele>283</ele>
        <time>2021-03-14T19:03:57Z</time>
      </trkpt>
      <trkpt lat="45.68416" lon="5.03058">
        <ele>281</ele>
        <time>2021-03-14T19:04:10Z</time>
      </trkpt>
      <trkpt lat="45.6843" lon="5.02996">
        <ele>280</ele>
        <time>2021-03-14T19:04:18Z</time>
      </trkpt>
      <trkpt lat="45.68451" lon="5.0295">
        <ele>280</ele>
        <time>2021-03-14T19:04:25Z</time>
      </trkpt>
      <trkpt lat="45.68491" lon="5.02898">
        <ele>280</ele>
        <time>2021-03-14T19:04:35Z</time>
      </trkpt>
      <trkpt lat="45.68508" lon="5.02869">
        <ele>280</ele>
        <time>2021-03-14T19:04:40Z</time>
      </trkpt>
      <trkpt lat="45.68527" lon="5.02821">
        <ele>280</ele>
        <time>2021-03-14T19:04:46Z</time>
      </trkpt>
      <trkpt lat="45.68531" lon="5.02804">
        <ele>281</ele>
        <time>2021-03-14T19:04:49Z</time>
      </trkpt>
      <trkpt lat="45.68539" lon="5.02736">
        <ele>281</ele>
        <time>2021-03-14T19:04:57Z</time>
      </trkpt>
      <trkpt lat="45.68539" lon="5.02719">
        <ele>281</ele>
        <time>2021-03-14T19:04:59Z</time>
      </trkpt>
      <trkpt lat="45.6853" lon="5.02615">
        <ele>283</ele>
        <time>2021-03-14T19:05:12Z</time>
      </trkpt>
      <trkpt lat="45.68539" lon="5.02524">
        <ele>285</ele>
        <time>2021-03-14T19:05:24Z</time>
      </trkpt>
      <trkpt lat="45.68547" lon="5.02492">
        <ele>285</ele>
        <time>2021-03-14T19:05:28Z</time>
      </trkpt>
      <trkpt lat="45.68515" lon="5.02481">
        <ele>285</ele>
        <time>2021-03-14T19:05:34Z</time>
      </trkpt>
      <trkpt lat="45.68473" lon="5.02479">
        <ele>282</ele>
        <time>2021-03-14T19:05:41Z</time>
      </trkpt>
      <trkpt lat="45.68448" lon="5.02527">
        <ele>280</ele>
        <time>2021-03-14T19:05:49Z</time>
      </trkpt>
      <trkpt lat="45.6838" lon="5.02506">
        <ele>276</ele>
        <time>2021-03-14T19:06:01Z</time>
      </trkpt>
      <trkpt lat="45.68358" lon="5.02443">
        <ele>274</ele>
        <time>2021-03-14T19:06:10Z</time>
      </trkpt>
      <trkpt lat="45.68304" lon="5.02383">
        <ele>271</ele>
        <time>2021-03-14T19:06:22Z</time>
      </trkpt>
      <trkpt lat="45.68208" lon="5.02298">
        <ele>267</ele>
        <time>2021-03-14T19:06:42Z</time>
      </trkpt>
      <trkpt lat="45.6818" lon="5.02258">
        <ele>263</ele>
        <time>2021-03-14T19:06:49Z</time>
      </trkpt>
      <trkpt lat="45.68133" lon="5.02221">
        <ele>257</ele>
        <time>2021-03-14T19:06:59Z</time>
      </trkpt>
      <trkpt lat="45.67988" lon="5.02132">
        <ele>246</ele>
        <time>2021-03-14T19:07:27Z</time>
      </trkpt>
      <trkpt lat="45.6791" lon="5.02087">
        <ele>248</ele>
        <time>2021-03-14T19:07:42Z</time>
      </trkpt>
      <trkpt lat="45.67886" lon="5.01966">
        <ele>244</ele>
        <time>2021-03-14T19:07:57Z</time>
      </trkpt>
      <trkpt lat="45.67926" lon="5.01702">
        <ele>244</ele>
        <time>2021-03-14T19:08:31Z</time>
      </trkpt>
      <trkpt lat="45.67943" lon="5.01499">
        <ele>241</ele>
        <time>2021-03-14T19:08:56Z</time>
      </trkpt>
      <trkpt lat="45.67931" lon="5.0144">
        <ele>239</ele>
        <time>2021-03-14T19:09:04Z</time>
      </trkpt>
      <trkpt lat="45.67893" lon="5.0134">
        <ele>237</ele>
        <time>2021-03-14T19:09:18Z</time>
      </trkpt>
      <trkpt lat="45.67857" lon="5.01181">
        <ele>237</ele>
        <time>2021-03-14T19:09:39Z</time>
      </trkpt>
      <trkpt lat="45.6782" lon="5.00959">
        <ele>235</ele>
        <time>2021-03-14T19:10:07Z</time>
      </trkpt>
      <trkpt lat="45.67783" lon="5.00676">
        <ele>237</ele>
        <time>2021-03-14T19:10:43Z</time>
      </trkpt>
      <trkpt lat="45.67727" lon="5.00427">
        <ele>237</ele>
        <time>2021-03-14T19:11:16Z</time>
      </trkpt>
      <trkpt lat="45.67684" lon="5.00181">
        <ele>236</ele>
        <time>2021-03-14T19:11:47Z</time>
      </trkpt>
      <trkpt lat="45.67664" lon="5.00089">
        <ele>236</ele>
        <time>2021-03-14T19:11:59Z</time>
      </trkpt>
      <trkpt lat="45.67615" lon="4.99985">
        <ele>234</ele>
        <time>2021-03-14T19:12:15Z</time>
      </trkpt>
      <trkpt lat="45.67579" lon="4.99923">
        <ele>233</ele>
        <time>2021-03-14T19:12:25Z</time>
      </trkpt>
      <trkpt lat="45.6753" lon="4.99869">
        <ele>233</ele>
        <time>2021-03-14T19:12:36Z</time>
      </trkpt>
      <trkpt lat="45.67452" lon="4.99718">
        <ele>233</ele>
        <time>2021-03-14T19:12:59Z</time>
      </trkpt>
      <trkpt lat="45.67396" lon="4.99564">
        <ele>233</ele>
        <time>2021-03-14T19:13:21Z</time>
      </trkpt>
      <trkpt lat="45.67344" lon="4.99438">
        <ele>232</ele>
        <time>2021-03-14T19:13:39Z</time>
      </trkpt>
      <trkpt lat="45.67299" lon="4.99347">
        <ele>231</ele>
        <time>2021-03-14T19:13:53Z</time>
      </trkpt>
      <trkpt lat="45.6728" lon="4.99257">
        <ele>231</ele>
        <time>2021-03-14T19:14:04Z</time>
      </trkpt>
      <trkpt lat="45.67206" lon="4.99086">
        <ele>227</ele>
        <time>2021-03-14T19:14:29Z</time>
      </trkpt>
      <trkpt lat="45.67184" lon="4.9903">
        <ele>227</ele>
        <time>2021-03-14T19:14:37Z</time>
      </trkpt>
      <trkpt lat="45.6712" lon="4.98784">
        <ele>228</ele>
        <time>2021-03-14T19:15:10Z</time>
      </trkpt>
      <trkpt lat="45.67069" lon="4.98486">
        <ele>230</ele>
        <time>2021-03-14T19:15:48Z</time>
      </trkpt>
      <trkpt lat="45.67034" lon="4.98315">
        <ele>230</ele>
        <time>2021-03-14T19:16:10Z</time>
      </trkpt>
      <trkpt lat="45.67041" lon="4.98266">
        <ele>230</ele>
        <time>2021-03-14T19:16:17Z</time>
      </trkpt>
      <trkpt lat="45.67024" lon="4.98156">
        <ele>230</ele>
        <time>2021-03-14T19:16:31Z</time>
      </trkpt>
      <trkpt lat="45.6699" lon="4.98139">
        <ele>230</ele>
        <time>2021-03-14T19:16:37Z</time>
      </trkpt>
      <trkpt lat="45.66916" lon="4.97829">
        <ele>228</ele>
        <time>2021-03-14T19:17:18Z</time>
      </trkpt>
      <trkpt lat="45.66884" lon="4.97607">
        <ele>227</ele>
        <time>2021-03-14T19:17:46Z</time>
      </trkpt>
      <trkpt lat="45.66847" lon="4.97245">
        <ele>224</ele>
        <time>2021-03-14T19:18:31Z</time>
      </trkpt>
      <trkpt lat="45.66838" lon="4.97079">
        <ele>224</ele>
        <time>2021-03-14T19:18:52Z</time>
      </trkpt>
      <trkpt lat="45.66821" lon="4.96918">
        <ele>225</ele>
        <time>2021-03-14T19:19:12Z</time>
      </trkpt>
      <trkpt lat="45.66802" lon="4.96789">
        <ele>225</ele>
        <time>2021-03-14T19:19:29Z</time>
      </trkpt>
      <trkpt lat="45.66754" lon="4.96683">
        <ele>225</ele>
        <time>2021-03-14T19:19:45Z</time>
      </trkpt>
      <trkpt lat="45.66715" lon="4.96563">
        <ele>225</ele>
        <time>2021-03-14T19:20:01Z</time>
      </trkpt>
      <trkpt lat="45.66679" lon="4.96419">
        <ele>224</ele>
        <time>2021-03-14T19:20:20Z</time>
      </trkpt>
      <trkpt lat="45.66651" lon="4.96271">
        <ele>224</ele>
        <time>2021-03-14T19:20:39Z</time>
      </trkpt>
      <trkpt lat="45.66715" lon="4.96199">
        <ele>221</ele>
        <time>2021-03-14T19:20:54Z</time>
      </trkpt>
      <trkpt lat="45.66745" lon="4.96161">
        <ele>220</ele>
        <time>2021-03-14T19:21:01Z</time>
      </trkpt>
      <trkpt lat="45.66813" lon="4.96066">
        <ele>219</ele>
        <time>2021-03-14T19:21:18Z</time>
      </trkpt>
      <trkpt lat="45.66876" lon="4.95988">
        <ele>220</ele>
        <time>2021-03-14T19:21:32Z</time>
      </trkpt>
      <trkpt lat="45.66912" lon="4.95926">
        <ele>220</ele>
        <time>2021-03-14T19:21:42Z</time>
      </trkpt>
      <trkpt lat="45.66936" lon="4.95899">
        <ele>220</ele>
        <time>2021-03-14T19:21:48Z</time>
      </trkpt>
    </trkseg>
  </trk>
</gpx>